Observation data for Van Horn on 03/28/2019      Previous  Date       Current Mesonet Observations  Soil Data  Daily Summary Page  Observations in Plain Language
KVA1 280500Z 29006KT 17/12 A3008 RMK A01 T01730117  RH  070%=      5-min Rain = 0
KVA1 280501Z 29006KT 17/12 A3008 RMK A01 T01730117  RH  070%=      5-min Rain = 0
KVA1 280502Z 28006KT 17/12 A3008 RMK A01 T01740118  RH  070%=      5-min Rain = 0
KVA1 280503Z 28006KT 17/12 A3008 RMK A01 T01730117  RH  070%=      5-min Rain = 0
KVA1 280504Z 29006KT 17/12 A3008 RMK A01 T01740118  RH  070%=      5-min Rain = 0
KVA1 280505Z 28006KT 17/12 A3008 RMK A01 T01740118  RH  070%=      5-min Rain = 0
KVA1 280506Z 28006KT 17/12 A3008 RMK A01 T01740118  RH  070%=      5-min Rain = 0
KVA1 280507Z 28006KT 17/12 A3008 RMK A01 T01740118  RH  070%=      5-min Rain = 0
KVA1 280508Z 28006KT 17/12 A3008 RMK A01 T01740118  RH  070%=      5-min Rain = 0
KVA1 280509Z 27006KT 17/12 A3008 RMK A01 T01740118  RH  070%=      5-min Rain = 0
KVA1 280510Z 27005KT 17/12 A3008 RMK A01 T01740118  RH  070%=      5-min Rain = 0
KVA1 280511Z 27005KT 17/12 A3008 RMK A01 T01740119  RH  070%=      5-min Rain = 0
KVA1 280512Z 19005KT 18/12 A3009 RMK A01 T01750119  RH  070%=      5-min Rain = 0
KVA1 280513Z 17006KT 18/12 A3009 RMK A01 T01750120  RH  070%=      5-min Rain = 0
KVA1 280514Z 19005KT 18/12 A3009 RMK A01 T01750119  RH  070%=      5-min Rain = 0
KVA1 280515Z 22004KT 18/12 A3009 RMK A01 T01760119  RH  069%=      5-min Rain = 0
KVA1 280516Z 17005KT 18/12 A3009 RMK A01 T01780120  RH  069%=      5-min Rain = 0
KVA1 280517Z 17006KT 18/12 A3009 RMK A01 T01790119  RH  068%=      5-min Rain = 0
KVA1 280518Z 19006KT 18/12 A3009 RMK A01 T01800119  RH  067%=      5-min Rain = 0
KVA1 280519Z 19005KT 18/12 A3009 RMK A01 T01820119  RH  067%=      5-min Rain = 0
KVA1 280520Z 18006KT 18/12 A3009 RMK A01 T01830119  RH  066%=      5-min Rain = 0
KVA1 280521Z 18006KT 18/12 A3009 RMK A01 T01830119  RH  066%=      5-min Rain = 0
KVA1 280522Z 18007KT 18/12 A3009 RMK A01 T01820119  RH  067%=      5-min Rain = 0
KVA1 280523Z 18009KT 18/12 A3009 RMK A01 T01810119  RH  067%=      5-min Rain = 0
KVA1 280524Z 18009KT 18/12 A3009 RMK A01 T01800119  RH  067%=      5-min Rain = 0
KVA1 280525Z 19008KT 18/12 A3009 RMK A01 T01780117  RH  067%=      5-min Rain = 0
KVA1 280526Z 19009KT 18/11 A3009 RMK A01 T01760114  RH  067%=      5-min Rain = 0
KVA1 280527Z 20008KT 18/11 A3009 RMK A01 T01750113  RH  067%=      5-min Rain = 0
KVA1 280528Z 20007KT 18/11 A3009 RMK A01 T01750113  RH  067%=      5-min Rain = 0
KVA1 280529Z 20005KT 18/11 A3009 RMK A01 T01750113  RH  067%=      5-min Rain = 0
KVA1 280530Z 20007KT 18/11 A3009 RMK A01 T01750113  RH  067%=      5-min Rain = 0
KVA1 280531Z 20006KT 18/11 A3009 RMK A01 T01750113  RH  067%=      5-min Rain = 0
KVA1 280532Z 20006KT 18/11 A3009 RMK A01 T01750113  RH  067%=      5-min Rain = 0
KVA1 280533Z 20006KT 18/11 A3009 RMK A01 T01750113  RH  067%=      5-min Rain = 0
KVA1 280534Z 21007KT 18/11 A3009 RMK A01 T01760113  RH  066%=      5-min Rain = 0
KVA1 280535Z 21006KT 18/11 A3008 RMK A01 T01780113  RH  066%=      5-min Rain = 0
KVA1 280536Z 20006KT 18/11 A3008 RMK A01 T01790113  RH  065%=      5-min Rain = 0
KVA1 280537Z 20006KT 18/11 A3008 RMK A01 T01800113  RH  065%=      5-min Rain = 0
KVA1 280538Z 20006KT 18/11 A3008 RMK A01 T01810112  RH  064%=      5-min Rain = 0
KVA1 280539Z 20006KT 18/11 A3008 RMK A01 T01820112  RH  064%=      5-min Rain = 0
KVA1 280540Z 21006KT 18/11 A3008 RMK A01 T01820112  RH  064%=      5-min Rain = 0
KVA1 280541Z 20006KT 18/11 A3008 RMK A01 T01820112  RH  064%=      5-min Rain = 0
KVA1 280542Z 20005KT 18/11 A3008 RMK A01 T01820112  RH  064%=      5-min Rain = 0
KVA1 280543Z 21006KT 18/11 A3008 RMK A01 T01820112  RH  063%=      5-min Rain = 0
KVA1 280544Z 21005KT 18/11 A3008 RMK A01 T01820111  RH  063%=      5-min Rain = 0
KVA1 280545Z 22006KT 18/11 A3008 RMK A01 T01820112  RH  063%=      5-min Rain = 0
KVA1 280546Z 22006KT 18/11 A3008 RMK A01 T01820112  RH  063%=      5-min Rain = 0
KVA1 280547Z 22006KT 18/11 A3008 RMK A01 T01820112  RH  064%=      5-min Rain = 0
KVA1 280548Z 22006KT 18/11 A3008 RMK A01 T01810112  RH  064%=      5-min Rain = 0
KVA1 280549Z 22006KT 18/11 A3008 RMK A01 T01810111  RH  064%=      5-min Rain = 0
KVA1 280550Z 22007KT 18/11 A3008 RMK A01 T01800111  RH  064%=      5-min Rain = 0
KVA1 280551Z 23007KT 18/11 A3008 RMK A01 T01800112  RH  064%=      5-min Rain = 0
KVA1 280552Z 23006KT 18/11 A3008 RMK A01 T01790111  RH  064%=      5-min Rain = 0
KVA1 280553Z 22007KT 18/11 A3008 RMK A01 T01790111  RH  065%=      5-min Rain = 0
KVA1 280554Z 22007KT 18/11 A3008 RMK A01 T01790111  RH  064%=      5-min Rain = 0
KVA1 280555Z 22007KT 18/11 A3008 RMK A01 T01800111  RH  064%=      5-min Rain = 0
KVA1 280556Z 22007KT 18/11 A3008 RMK A01 T01810111  RH  064%=      5-min Rain = 0
KVA1 280557Z 22007KT 18/11 A3008 RMK A01 T01810111  RH  063%=      5-min Rain = 0
KVA1 280558Z 23007KT 18/11 A3008 RMK A01 T01810111  RH  063%=      5-min Rain = 0
KVA1 280559Z 23006KT 18/11 A3008 RMK A01 T01820111  RH  063%=      5-min Rain = 0
KVA1 280600Z 23006KT 18/11 A3008 RMK A01 T01820111  RH  063%=      5-min Rain = 0
KVA1 280601Z 23006KT 18/11 A3008 RMK A01 T01810111  RH  063%=      5-min Rain = 0
KVA1 280602Z 24006KT 18/11 A3008 RMK A01 T01800111  RH  064%=      5-min Rain = 0
KVA1 280603Z 24007KT 18/11 A3008 RMK A01 T01800111  RH  064%=      5-min Rain = 0
KVA1 280604Z 23006KT 18/11 A3008 RMK A01 T01800111  RH  064%=      5-min Rain = 0
KVA1 280605Z 23006KT 18/11 A3008 RMK A01 T01810111  RH  064%=      5-min Rain = 0
KVA1 280606Z 23006KT 18/11 A3008 RMK A01 T01810111  RH  064%=      5-min Rain = 0
KVA1 280607Z 24006KT 18/11 A3008 RMK A01 T01810111  RH  064%=      5-min Rain = 0
KVA1 280608Z 23006KT 18/11 A3008 RMK A01 T01810111  RH  064%=      5-min Rain = 0
KVA1 280609Z 22007KT 18/11 A3008 RMK A01 T01810112  RH  064%=      5-min Rain = 0
KVA1 280610Z 22006KT 18/11 A3008 RMK A01 T01810112  RH  064%=      5-min Rain = 0
KVA1 280611Z 22006KT 18/11 A3008 RMK A01 T01820113  RH  064%=      5-min Rain = 0
KVA1 280612Z 23006KT 18/11 A3008 RMK A01 T01830113  RH  064%=      5-min Rain = 0
KVA1 280613Z 23006KT 18/11 A3008 RMK A01 T01830113  RH  064%=      5-min Rain = 0
KVA1 280614Z 23005KT 18/11 A3008 RMK A01 T01830113  RH  064%=      5-min Rain = 0
KVA1 280615Z 23005KT 18/11 A3008 RMK A01 T01830113  RH  064%=      5-min Rain = 0
KVA1 280616Z 23005KT 18/11 A3008 RMK A01 T01820114  RH  064%=      5-min Rain = 0
KVA1 280617Z 23006KT 18/11 A3008 RMK A01 T01810114  RH  064%=      5-min Rain = 0
KVA1 280618Z 24006KT 18/11 A3008 RMK A01 T01810114  RH  065%=      5-min Rain = 0
KVA1 280619Z 24006KT 18/11 A3008 RMK A01 T01810114  RH  065%=      5-min Rain = 0
KVA1 280620Z 24006KT 18/11 A3008 RMK A01 T01810114  RH  065%=      5-min Rain = 0
KVA1 280621Z 24006KT 18/11 A3008 RMK A01 T01810114  RH  065%=      5-min Rain = 0
KVA1 280622Z 24006KT 18/11 A3009 RMK A01 T01800114  RH  065%=      5-min Rain = 0
KVA1 280623Z 24005KT 18/11 A3009 RMK A01 T01800114  RH  065%=      5-min Rain = 0
KVA1 280624Z 24005KT 18/11 A3009 RMK A01 T01810114  RH  065%=      5-min Rain = 0
KVA1 280625Z 24005KT 18/11 A3009 RMK A01 T01800114  RH  065%=      5-min Rain = 0
KVA1 280626Z 24005KT 18/11 A3009 RMK A01 T01800114  RH  065%=      5-min Rain = 0
KVA1 280627Z 24004KT 18/11 A3009 RMK A01 T01790114  RH  066%=      5-min Rain = 0
KVA1 280628Z 23005KT 18/11 A3009 RMK A01 T01790114  RH  066%=      5-min Rain = 0
KVA1 280629Z 23004KT 18/11 A3009 RMK A01 T01790114  RH  066%=      5-min Rain = 0
KVA1 280630Z 23004KT 18/11 A3009 RMK A01 T01790114  RH  066%=      5-min Rain = 0
KVA1 280631Z 23004KT 18/11 A3008 RMK A01 T01790114  RH  066%=      5-min Rain = 0
KVA1 280632Z 23005KT 18/11 A3008 RMK A01 T01790114  RH  066%=      5-min Rain = 0
KVA1 280633Z 23004KT 18/11 A3008 RMK A01 T01790114  RH  066%=      5-min Rain = 0
KVA1 280634Z 23004KT 18/11 A3008 RMK A01 T01780114  RH  066%=      5-min Rain = 0
KVA1 280635Z 23005KT 18/11 A3008 RMK A01 T01770114  RH  066%=      5-min Rain = 0
KVA1 280636Z 23004KT 18/12 A3008 RMK A01 T01770115  RH  067%=      5-min Rain = 0
KVA1 280637Z 23005KT 18/12 A3008 RMK A01 T01770115  RH  067%=      5-min Rain = 0
KVA1 280638Z 23005KT 18/12 A3008 RMK A01 T01760115  RH  067%=      5-min Rain = 0
KVA1 280639Z 23005KT 18/12 A3008 RMK A01 T01760115  RH  067%=      5-min Rain = 0
KVA1 280640Z 23005KT 18/12 A3008 RMK A01 T01760115  RH  067%=      5-min Rain = 0
KVA1 280641Z 23005KT 18/12 A3008 RMK A01 T01760115  RH  068%=      5-min Rain = 0
KVA1 280642Z 23005KT 18/12 A3008 RMK A01 T01760116  RH  068%=      5-min Rain = 0
KVA1 280643Z 23005KT 18/12 A3008 RMK A01 T01760116  RH  068%=      5-min Rain = 0
KVA1 280644Z 23006KT 18/12 A3008 RMK A01 T01760116  RH  068%=      5-min Rain = 0
KVA1 280645Z 23006KT 18/12 A3008 RMK A01 T01760116  RH  068%=      5-min Rain = 0
KVA1 280646Z 23006KT 18/12 A3008 RMK A01 T01760116  RH  068%=      5-min Rain = 0
KVA1 280647Z 23006KT 18/12 A3008 RMK A01 T01760116  RH  068%=      5-min Rain = 0
KVA1 280648Z 23006KT 18/12 A3008 RMK A01 T01760116  RH  068%=      5-min Rain = 0
KVA1 280649Z 23006KT 18/12 A3008 RMK A01 T01760117  RH  068%=      5-min Rain = 0
KVA1 280650Z 23006KT 18/12 A3008 RMK A01 T01760117  RH  068%=      5-min Rain = 0
KVA1 280651Z 23006KT 18/12 A3008 RMK A01 T01750117  RH  069%=      5-min Rain = 0
KVA1 280652Z 23006KT 17/12 A3008 RMK A01 T01740117  RH  069%=      5-min Rain = 0
KVA1 280653Z 22006KT 17/12 A3008 RMK A01 T01740117  RH  069%=      5-min Rain = 0
KVA1 280654Z 22006KT 17/12 A3008 RMK A01 T01740117  RH  069%=      5-min Rain = 0
KVA1 280655Z 22007KT 18/12 A3008 RMK A01 T01750118  RH  069%=      5-min Rain = 0
KVA1 280656Z 22007KT 17/12 A3008 RMK A01 T01740117  RH  069%=      5-min Rain = 0
KVA1 280657Z 23007KT 17/12 A3008 RMK A01 T01740118  RH  069%=      5-min Rain = 0
KVA1 280658Z 22007KT 18/12 A3008 RMK A01 T01750118  RH  069%=      5-min Rain = 0
KVA1 280659Z 22007KT 18/12 A3008 RMK A01 T01750118  RH  070%=      5-min Rain = 0
KVA1 280700Z 22007KT 17/12 A3008 RMK A01 T01740118  RH  069%=      5-min Rain = 0
KVA1 280701Z 22007KT 17/12 A3008 RMK A01 T01740118  RH  069%=      5-min Rain = 0
KVA1 280702Z 22006KT 18/12 A3008 RMK A01 T01750119  RH  070%=      5-min Rain = 0
KVA1 280703Z 22007KT 18/12 A3008 RMK A01 T01750119  RH  070%=      5-min Rain = 0
KVA1 280704Z 22007KT 18/12 A3008 RMK A01 T01750119  RH  070%=      5-min Rain = 0
KVA1 280705Z 23007KT 18/12 A3008 RMK A01 T01760120  RH  070%=      5-min Rain = 0
KVA1 280706Z 23007KT 18/12 A3008 RMK A01 T01760120  RH  070%=      5-min Rain = 0
KVA1 280707Z 22006KT 18/12 A3008 RMK A01 T01760120  RH  070%=      5-min Rain = 0
KVA1 280708Z 22006KT 18/12 A3008 RMK A01 T01760120  RH  070%=      5-min Rain = 0
KVA1 280709Z 22006KT 18/12 A3008 RMK A01 T01760120  RH  070%=      5-min Rain = 0
KVA1 280710Z 22007KT 18/12 A3008 RMK A01 T01760120  RH  070%=      5-min Rain = 0
KVA1 280711Z 22007KT 18/12 A3008 RMK A01 T01760121  RH  070%=      5-min Rain = 0
KVA1 280712Z 22008KT 18/12 A3008 RMK A01 T01760121  RH  070%=      5-min Rain = 0
KVA1 280713Z 22007KT 18/12 A3008 RMK A01 T01760121  RH  070%=      5-min Rain = 0
KVA1 280714Z 22007KT 18/12 A3008 RMK A01 T01760120  RH  070%=      5-min Rain = 0
KVA1 280715Z 21007KT 18/12 A3008 RMK A01 T01760121  RH  070%=      5-min Rain = 0
KVA1 280716Z 21007KT 18/12 A3008 RMK A01 T01760121  RH  070%=      5-min Rain = 0
KVA1 280717Z 21008KT 18/12 A3008 RMK A01 T01760121  RH  070%=      5-min Rain = 0
KVA1 280718Z 21008KT 18/12 A3008 RMK A01 T01760122  RH  070%=      5-min Rain = 0
KVA1 280719Z 21007KT 18/12 A3008 RMK A01 T01760121  RH  070%=      5-min Rain = 0
KVA1 280720Z 21007KT 18/12 A3008 RMK A01 T01760121  RH  070%=      5-min Rain = 0
KVA1 280721Z 21007KT 18/12 A3008 RMK A01 T01760121  RH  070%=      5-min Rain = 0
KVA1 280722Z 21008KT 18/12 A3008 RMK A01 T01750121  RH  071%=      5-min Rain = 0
KVA1 280723Z 21008KT 18/12 A3008 RMK A01 T01750121  RH  071%=      5-min Rain = 0
KVA1 280724Z 21007KT 18/12 A3008 RMK A01 T01750121  RH  071%=      5-min Rain = 0
KVA1 280725Z 21008KT 18/12 A3008 RMK A01 T01750121  RH  071%=      5-min Rain = 0
KVA1 280726Z 21008KT 18/12 A3008 RMK A01 T01750122  RH  071%=      5-min Rain = 0
KVA1 280727Z 21009KT 18/12 A3008 RMK A01 T01750122  RH  071%=      5-min Rain = 0
KVA1 280728Z 21008KT 18/12 A3008 RMK A01 T01750122  RH  071%=      5-min Rain = 0
KVA1 280729Z 21008KT 18/12 A3008 RMK A01 T01750122  RH  071%=      5-min Rain = 0
KVA1 280730Z 21009KT 18/12 A3008 RMK A01 T01750122  RH  071%=      5-min Rain = 0
KVA1 280731Z 21008KT 18/12 A3008 RMK A01 T01750122  RH  071%=      5-min Rain = 0
KVA1 280732Z 21008KT 18/12 A3008 RMK A01 T01750122  RH  071%=      5-min Rain = 0
KVA1 280733Z 21007KT 18/12 A3008 RMK A01 T01750122  RH  071%=      5-min Rain = 0
KVA1 280734Z 20007KT 18/12 A3008 RMK A01 T01750122  RH  071%=      5-min Rain = 0
KVA1 280735Z 20008KT 18/12 A3008 RMK A01 T01750122  RH  071%=      5-min Rain = 0
KVA1 280736Z 20008KT 18/12 A3008 RMK A01 T01750122  RH  071%=      5-min Rain = 0
KVA1 280737Z 21008KT 18/12 A3008 RMK A01 T01750122  RH  071%=      5-min Rain = 0
KVA1 280738Z 20009KT 18/12 A3008 RMK A01 T01750122  RH  071%=      5-min Rain = 0
KVA1 280739Z 21008KT 18/12 A3008 RMK A01 T01750122  RH  071%=      5-min Rain = 0
KVA1 280740Z 20009KT 18/12 A3008 RMK A01 T01750123  RH  071%=      5-min Rain = 0
KVA1 280741Z 20009KT 18/12 A3008 RMK A01 T01750123  RH  071%=      5-min Rain = 0
KVA1 280742Z 21008KT 18/12 A3008 RMK A01 T01750123  RH  071%=      5-min Rain = 0
KVA1 280743Z 21010KT 18/12 A3008 RMK A01 T01750123  RH  071%=      5-min Rain = 0
KVA1 280744Z 21009KT 18/12 A3008 RMK A01 T01750123  RH  072%=      5-min Rain = 0
KVA1 280745Z 22008KT 18/12 A3008 RMK A01 T01750123  RH  072%=      5-min Rain = 0
KVA1 280746Z 21008KT 17/12 A3008 RMK A01 T01740123  RH  072%=      5-min Rain = 0
KVA1 280747Z 21007KT 17/12 A3008 RMK A01 T01740123  RH  072%=      5-min Rain = 0
KVA1 280748Z 21007KT 17/12 A3008 RMK A01 T01740123  RH  072%=      5-min Rain = 0
KVA1 280749Z 21009KT 17/12 A3008 RMK A01 T01730123  RH  072%=      5-min Rain = 0
KVA1 280750Z 22008KT 17/12 A3008 RMK A01 T01740123  RH  072%=      5-min Rain = 0
KVA1 280751Z 22009KT 17/12 A3008 RMK A01 T01730123  RH  072%=      5-min Rain = 0
KVA1 280752Z 21008KT 17/12 A3008 RMK A01 T01730123  RH  072%=      5-min Rain = 0
KVA1 280753Z 21008KT 17/12 A3008 RMK A01 T01730123  RH  073%=      5-min Rain = 0
KVA1 280754Z 22008KT 17/12 A3008 RMK A01 T01720123  RH  073%=      5-min Rain = 0
KVA1 280755Z 21009KT 17/12 A3008 RMK A01 T01720123  RH  073%=      5-min Rain = 0
KVA1 280756Z 21009KT 17/12 A3008 RMK A01 T01720123  RH  073%=      5-min Rain = 0
KVA1 280757Z 21009KT 17/12 A3008 RMK A01 T01720123  RH  073%=      5-min Rain = 0
KVA1 280758Z 21008KT 17/12 A3008 RMK A01 T01720123  RH  073%=      5-min Rain = 0
KVA1 280759Z 21009KT 17/12 A3008 RMK A01 T01720123  RH  073%=      5-min Rain = 0
KVA1 280800Z 21008KT 17/12 A3008 RMK A01 T01720123  RH  073%=      5-min Rain = 0
KVA1 280801Z 21009KT 17/12 A3008 RMK A01 T01710123  RH  073%=      5-min Rain = 0
KVA1 280802Z 21010KT 17/12 A3008 RMK A01 T01710123  RH  073%=      5-min Rain = 0
KVA1 280803Z 21009KT 17/12 A3008 RMK A01 T01710123  RH  073%=      5-min Rain = 0
KVA1 280804Z 21008KT 17/12 A3008 RMK A01 T01710124  RH  073%=      5-min Rain = 0
KVA1 280805Z 21008KT 17/12 A3008 RMK A01 T01710123  RH  073%=      5-min Rain = 0
KVA1 280806Z 21008KT 17/12 A3008 RMK A01 T01710123  RH  074%=      5-min Rain = 0
KVA1 280807Z 21007KT 17/12 A3008 RMK A01 T01700123  RH  074%=      5-min Rain = 0
KVA1 280808Z 21006KT 17/12 A3008 RMK A01 T01700124  RH  074%=      5-min Rain = 0
KVA1 280809Z 21006KT 17/12 A3008 RMK A01 T01700123  RH  074%=      5-min Rain = 0
KVA1 280810Z 20008KT 17/12 A3008 RMK A01 T01700124  RH  074%=      5-min Rain = 0
KVA1 280811Z 21007KT 17/12 A3008 RMK A01 T01690124  RH  074%=      5-min Rain = 0
KVA1 280812Z 20007KT 17/12 A3008 RMK A01 T01700124  RH  074%=      5-min Rain = 0
KVA1 280813Z 20007KT 17/12 A3008 RMK A01 T01700124  RH  074%=      5-min Rain = 0
KVA1 280814Z 20008KT 17/12 A3008 RMK A01 T01700124  RH  074%=      5-min Rain = 0
KVA1 280815Z 20008KT 17/12 A3008 RMK A01 T01700124  RH  074%=      5-min Rain = 0
KVA1 280816Z 21008KT 17/12 A3008 RMK A01 T01700124  RH  074%=      5-min Rain = 0
KVA1 280817Z 21006KT 17/12 A3008 RMK A01 T01700124  RH  074%=      5-min Rain = 0
KVA1 280818Z 21007KT 17/12 A3008 RMK A01 T01700124  RH  074%=      5-min Rain = 0
KVA1 280819Z 21006KT 17/12 A3008 RMK A01 T01700124  RH  074%=      5-min Rain = 0
KVA1 280820Z 21007KT 17/12 A3008 RMK A01 T01700124  RH  074%=      5-min Rain = 0
KVA1 280821Z 21007KT 17/12 A3008 RMK A01 T01690124  RH  075%=      5-min Rain = 0
KVA1 280822Z 21007KT 17/12 A3008 RMK A01 T01690124  RH  075%=      5-min Rain = 0
KVA1 280823Z 20007KT 17/12 A3008 RMK A01 T01690124  RH  075%=      5-min Rain = 0
KVA1 280824Z 21007KT 17/13 A3008 RMK A01 T01690125  RH  075%=      5-min Rain = 0
KVA1 280825Z 20008KT 17/13 A3008 RMK A01 T01690125  RH  075%=      5-min Rain = 0
KVA1 280826Z 20007KT 17/13 A3008 RMK A01 T01680125  RH  075%=      5-min Rain = 0
KVA1 280827Z 20006KT 17/13 A3008 RMK A01 T01680125  RH  075%=      5-min Rain = 0
KVA1 280828Z 20006KT 17/13 A3008 RMK A01 T01680125  RH  075%=      5-min Rain = 0
KVA1 280829Z 20006KT 17/13 A3008 RMK A01 T01680125  RH  076%=      5-min Rain = 0
KVA1 280830Z 20007KT 17/13 A3008 RMK A01 T01680125  RH  076%=      5-min Rain = 0
KVA1 280831Z 20007KT 17/13 A3008 RMK A01 T01680125  RH  076%=      5-min Rain = 0
KVA1 280832Z 20007KT 17/13 A3008 RMK A01 T01670125  RH  076%=      5-min Rain = 0
KVA1 280833Z 20007KT 17/13 A3008 RMK A01 T01680125  RH  076%=      5-min Rain = 0
KVA1 280834Z 21007KT 17/13 A3008 RMK A01 T01680125  RH  076%=      5-min Rain = 0
KVA1 280835Z 20007KT 17/13 A3008 RMK A01 T01680125  RH  076%=      5-min Rain = 0
KVA1 280836Z 21007KT 17/13 A3008 RMK A01 T01670125  RH  076%=      5-min Rain = 0
KVA1 280837Z 21007KT 17/13 A3008 RMK A01 T01670125  RH  076%=      5-min Rain = 0
KVA1 280838Z 21007KT 17/13 A3008 RMK A01 T01670125  RH  076%=      5-min Rain = 0
KVA1 280839Z 21007KT 17/13 A3008 RMK A01 T01680125  RH  076%=      5-min Rain = 0
KVA1 280840Z 22006KT 17/13 A3008 RMK A01 T01680125  RH  076%=      5-min Rain = 0
KVA1 280841Z 21006KT 17/13 A3008 RMK A01 T01670125  RH  076%=      5-min Rain = 0
KVA1 280842Z 22006KT 17/13 A3008 RMK A01 T01680125  RH  076%=      5-min Rain = 0
KVA1 280843Z 21006KT 17/13 A3008 RMK A01 T01670125  RH  076%=      5-min Rain = 0
KVA1 280844Z 21006KT 17/13 A3008 RMK A01 T01670125  RH  076%=      5-min Rain = 0
KVA1 280845Z 20007KT 17/13 A3008 RMK A01 T01670125  RH  076%=      5-min Rain = 0
KVA1 280846Z 21007KT 17/13 A3008 RMK A01 T01660125  RH  077%=      5-min Rain = 0
KVA1 280847Z 21005KT 17/13 A3008 RMK A01 T01670125  RH  076%=      5-min Rain = 0
KVA1 280848Z 20006KT 17/13 A3008 RMK A01 T01670125  RH  076%=      5-min Rain = 0
KVA1 280849Z 21006KT 17/13 A3008 RMK A01 T01670125  RH  077%=      5-min Rain = 0
KVA1 280850Z 21006KT 17/13 A3008 RMK A01 T01670126  RH  077%=      5-min Rain = 0
KVA1 280851Z 21006KT 17/13 A3008 RMK A01 T01660125  RH  077%=      5-min Rain = 0
KVA1 280852Z 21006KT 17/13 A3008 RMK A01 T01660126  RH  077%=      5-min Rain = 0
KVA1 280853Z 21006KT 17/13 A3008 RMK A01 T01660126  RH  077%=      5-min Rain = 0
KVA1 280854Z 21005KT 17/13 A3008 RMK A01 T01660125  RH  077%=      5-min Rain = 0
KVA1 280855Z 21007KT 17/13 A3008 RMK A01 T01650125  RH  077%=      5-min Rain = 0
KVA1 280856Z 21006KT 17/13 A3008 RMK A01 T01650125  RH  077%=      5-min Rain = 0
KVA1 280857Z 21006KT 17/13 A3008 RMK A01 T01650125  RH  077%=      5-min Rain = 0
KVA1 280858Z 22006KT 16/13 A3008 RMK A01 T01640125  RH  078%=      5-min Rain = 0
KVA1 280859Z 22006KT 16/13 A3008 RMK A01 T01640125  RH  078%=      5-min Rain = 0
KVA1 280900Z 22006KT 16/13 A3008 RMK A01 T01640125  RH  078%=      5-min Rain = 0
KVA1 280901Z 22006KT 16/13 A3008 RMK A01 T01630125  RH  078%=      5-min Rain = 0
KVA1 280902Z 22007KT 16/13 A3008 RMK A01 T01630125  RH  078%=      5-min Rain = 0
KVA1 280903Z 22006KT 16/13 A3008 RMK A01 T01630125  RH  078%=      5-min Rain = 0
KVA1 280904Z 22006KT 16/12 A3007 RMK A01 T01620124  RH  078%=      5-min Rain = 0
KVA1 280905Z 22006KT 16/13 A3007 RMK A01 T01620125  RH  078%=      5-min Rain = 0
KVA1 280906Z 22006KT 16/13 A3007 RMK A01 T01620125  RH  078%=      5-min Rain = 0
KVA1 280907Z 22007KT 16/13 A3007 RMK A01 T01620125  RH  079%=      5-min Rain = 0
KVA1 280908Z 22008KT 16/13 A3007 RMK A01 T01620125  RH  079%=      5-min Rain = 0
KVA1 280909Z 22007KT 16/13 A3007 RMK A01 T01620125  RH  079%=      5-min Rain = 0
KVA1 280910Z 22007KT 16/13 A3007 RMK A01 T01620125  RH  079%=      5-min Rain = 0
KVA1 280911Z 22007KT 16/13 A3007 RMK A01 T01620125  RH  079%=      5-min Rain = 0
KVA1 280912Z 22007KT 16/13 A3007 RMK A01 T01620125  RH  078%=      5-min Rain = 0
KVA1 280913Z 22007KT 16/13 A3007 RMK A01 T01620125  RH  079%=      5-min Rain = 0
KVA1 280914Z 22007KT 16/13 A3007 RMK A01 T01620125  RH  079%=      5-min Rain = 0
KVA1 280915Z 22007KT 16/13 A3007 RMK A01 T01620125  RH  079%=      5-min Rain = 0
KVA1 280916Z 22007KT 16/13 A3007 RMK A01 T01620125  RH  079%=      5-min Rain = 0
KVA1 280917Z 22008KT 16/13 A3008 RMK A01 T01620125  RH  079%=      5-min Rain = 0
KVA1 280918Z 22007KT 16/13 A3008 RMK A01 T01620125  RH  079%=      5-min Rain = 0
KVA1 280919Z 22008KT 16/13 A3008 RMK A01 T01620125  RH  079%=      5-min Rain = 0
KVA1 280920Z 23007KT 16/13 A3008 RMK A01 T01620126  RH  079%=      5-min Rain = 0
KVA1 280921Z 23007KT 16/13 A3008 RMK A01 T01620125  RH  079%=      5-min Rain = 0
KVA1 280922Z 22007KT 16/13 A3008 RMK A01 T01620125  RH  079%=      5-min Rain = 0
KVA1 280923Z 23006KT 16/13 A3008 RMK A01 T01620126  RH  079%=      5-min Rain = 0
KVA1 280924Z 22007KT 16/13 A3008 RMK A01 T01620125  RH  079%=      5-min Rain = 0
KVA1 280925Z 22007KT 16/13 A3008 RMK A01 T01620126  RH  079%=      5-min Rain = 0
KVA1 280926Z 22006KT 16/13 A3007 RMK A01 T01620125  RH  079%=      5-min Rain = 0
KVA1 280927Z 22007KT 16/13 A3007 RMK A01 T01620125  RH  079%=      5-min Rain = 0
KVA1 280928Z 22006KT 16/13 A3007 RMK A01 T01620125  RH  079%=      5-min Rain = 0
KVA1 280929Z 22006KT 16/13 A3007 RMK A01 T01620125  RH  079%=      5-min Rain = 0
KVA1 280930Z 22006KT 16/13 A3007 RMK A01 T01620126  RH  079%=      5-min Rain = 0
KVA1 280931Z 23005KT 16/13 A3007 RMK A01 T01620125  RH  079%=      5-min Rain = 0
KVA1 280932Z 23006KT 16/13 A3007 RMK A01 T01610125  RH  079%=      5-min Rain = 0
KVA1 280933Z 23006KT 16/13 A3007 RMK A01 T01610125  RH  079%=      5-min Rain = 0
KVA1 280934Z 23006KT 16/13 A3007 RMK A01 T01610126  RH  079%=      5-min Rain = 0
KVA1 280935Z 23006KT 16/13 A3007 RMK A01 T01610125  RH  079%=      5-min Rain = 0
KVA1 280936Z 23005KT 16/13 A3007 RMK A01 T01610125  RH  079%=      5-min Rain = 0
KVA1 280937Z 23006KT 16/13 A3007 RMK A01 T01610125  RH  079%=      5-min Rain = 0
KVA1 280938Z 23006KT 16/13 A3007 RMK A01 T01600125  RH  080%=      5-min Rain = 0
KVA1 280939Z 23007KT 16/13 A3007 RMK A01 T01600125  RH  080%=      5-min Rain = 0
KVA1 280940Z 22007KT 16/13 A3007 RMK A01 T01600126  RH  080%=      5-min Rain = 0
KVA1 280941Z 22006KT 16/13 A3007 RMK A01 T01600126  RH  080%=      5-min Rain = 0
KVA1 280942Z 23007KT 16/13 A3007 RMK A01 T01600125  RH  080%=      5-min Rain = 0
KVA1 280943Z 23006KT 16/13 A3007 RMK A01 T01600125  RH  080%=      5-min Rain = 0
KVA1 280944Z 23006KT 16/13 A3007 RMK A01 T01600125  RH  080%=      5-min Rain = 0
KVA1 280945Z 23006KT 16/13 A3007 RMK A01 T01590125  RH  080%=      5-min Rain = 0
KVA1 280946Z 23006KT 16/13 A3007 RMK A01 T01590125  RH  080%=      5-min Rain = 0
KVA1 280947Z 23006KT 16/13 A3007 RMK A01 T01590125  RH  080%=      5-min Rain = 0
KVA1 280948Z 23006KT 16/13 A3007 RMK A01 T01580125  RH  080%=      5-min Rain = 0
KVA1 280949Z 23005KT 16/13 A3007 RMK A01 T01580125  RH  081%=      5-min Rain = 0
KVA1 280950Z 23005KT 16/13 A3007 RMK A01 T01580125  RH  081%=      5-min Rain = 0
KVA1 280951Z 23006KT 16/13 A3007 RMK A01 T01580125  RH  081%=      5-min Rain = 0
KVA1 280952Z 23006KT 16/13 A3007 RMK A01 T01580125  RH  081%=      5-min Rain = 0
KVA1 280953Z 24005KT 16/13 A3007 RMK A01 T01580125  RH  081%=      5-min Rain = 0
KVA1 280954Z 24006KT 16/13 A3007 RMK A01 T01580125  RH  081%=      5-min Rain = 0
KVA1 280955Z 24006KT 16/13 A3007 RMK A01 T01580125  RH  081%=      5-min Rain = 0
KVA1 280956Z 24006KT 16/13 A3007 RMK A01 T01580125  RH  081%=      5-min Rain = 0
KVA1 280957Z 24006KT 16/13 A3007 RMK A01 T01580125  RH  081%=      5-min Rain = 0
KVA1 280958Z 24006KT 16/13 A3007 RMK A01 T01580125  RH  081%=      5-min Rain = 0
KVA1 280959Z 24006KT 16/13 A3007 RMK A01 T01580125  RH  081%=      5-min Rain = 0
KVA1 281000Z 24006KT 16/13 A3007 RMK A01 T01580125  RH  081%=      5-min Rain = 0
KVA1 281001Z 24006KT 16/13 A3007 RMK A01 T01580125  RH  081%=      5-min Rain = 0
KVA1 281002Z 24006KT 16/13 A3007 RMK A01 T01580126  RH  081%=      5-min Rain = 0
KVA1 281003Z 24006KT 16/13 A3007 RMK A01 T01580125  RH  081%=      5-min Rain = 0
KVA1 281004Z 23006KT 16/13 A3007 RMK A01 T01580125  RH  081%=      5-min Rain = 0
KVA1 281005Z 23006KT 16/13 A3007 RMK A01 T01580125  RH  081%=      5-min Rain = 0
KVA1 281006Z 23006KT 16/13 A3007 RMK A01 T01580125  RH  081%=      5-min Rain = 0
KVA1 281007Z 23006KT 16/13 A3007 RMK A01 T01580125  RH  081%=      5-min Rain = 0
KVA1 281008Z 23006KT 16/13 A3007 RMK A01 T01570125  RH  081%=      5-min Rain = 0
KVA1 281009Z 24006KT 16/13 A3007 RMK A01 T01570125  RH  081%=      5-min Rain = 0
KVA1 281010Z 24006KT 16/13 A3007 RMK A01 T01570125  RH  081%=      5-min Rain = 0
KVA1 281011Z 24006KT 16/13 A3007 RMK A01 T01570125  RH  081%=      5-min Rain = 0
KVA1 281012Z 24006KT 16/13 A3007 RMK A01 T01570125  RH  081%=      5-min Rain = 0
KVA1 281013Z 24006KT 16/13 A3007 RMK A01 T01570125  RH  081%=      5-min Rain = 0
KVA1 281014Z 24006KT 16/13 A3007 RMK A01 T01570125  RH  081%=      5-min Rain = 0
KVA1 281015Z 24006KT 16/13 A3007 RMK A01 T01560125  RH  081%=      5-min Rain = 0
KVA1 281016Z 23006KT 16/13 A3007 RMK A01 T01570125  RH  081%=      5-min Rain = 0
KVA1 281017Z 23006KT 16/13 A3007 RMK A01 T01570125  RH  081%=      5-min Rain = 0
KVA1 281018Z 23007KT 16/13 A3007 RMK A01 T01560125  RH  081%=      5-min Rain = 0
KVA1 281019Z 23006KT 16/13 A3007 RMK A01 T01570125  RH  082%=      5-min Rain = 0
KVA1 281020Z 23006KT 16/13 A3007 RMK A01 T01570125  RH  081%=      5-min Rain = 0
KVA1 281021Z 23005KT 16/13 A3007 RMK A01 T01570125  RH  081%=      5-min Rain = 0
KVA1 281022Z 23005KT 16/13 A3007 RMK A01 T01570125  RH  081%=      5-min Rain = 0
KVA1 281023Z 24005KT 16/13 A3007 RMK A01 T01570125  RH  081%=      5-min Rain = 0
KVA1 281024Z 24005KT 16/13 A3007 RMK A01 T01570125  RH  081%=      5-min Rain = 0
KVA1 281025Z 24006KT 16/13 A3007 RMK A01 T01560125  RH  081%=      5-min Rain = 0
KVA1 281026Z 24005KT 16/13 A3007 RMK A01 T01570125  RH  081%=      5-min Rain = 0
KVA1 281027Z 24005KT 16/13 A3007 RMK A01 T01570125  RH  082%=      5-min Rain = 0
KVA1 281028Z 24006KT 16/13 A3007 RMK A01 T01570125  RH  082%=      5-min Rain = 0
KVA1 281029Z 23005KT 16/13 A3007 RMK A01 T01570125  RH  081%=      5-min Rain = 0
KVA1 281030Z 23005KT 16/13 A3007 RMK A01 T01560125  RH  081%=      5-min Rain = 0
KVA1 281031Z 22004KT 16/13 A3007 RMK A01 T01570125  RH  081%=      5-min Rain = 0
KVA1 281032Z 22004KT 16/13 A3007 RMK A01 T01570125  RH  081%=      5-min Rain = 0
KVA1 281033Z 22005KT 16/13 A3007 RMK A01 T01570125  RH  081%=      5-min Rain = 0
KVA1 281034Z 22005KT 16/13 A3007 RMK A01 T01570125  RH  081%=      5-min Rain = 0
KVA1 281035Z 22004KT 16/13 A3007 RMK A01 T01570125  RH  081%=      5-min Rain = 0
KVA1 281036Z 22005KT 16/13 A3007 RMK A01 T01570125  RH  081%=      5-min Rain = 0
KVA1 281037Z 22004KT 16/13 A3007 RMK A01 T01580125  RH  081%=      5-min Rain = 0
KVA1 281038Z 22005KT 16/13 A3007 RMK A01 T01570125  RH  081%=      5-min Rain = 0
KVA1 281039Z 21004KT 16/13 A3007 RMK A01 T01570125  RH  081%=      5-min Rain = 0
KVA1 281040Z 22005KT 16/13 A3007 RMK A01 T01570125  RH  081%=      5-min Rain = 0
KVA1 281041Z 22005KT 16/13 A3007 RMK A01 T01570125  RH  081%=      5-min Rain = 0
KVA1 281042Z 22005KT 16/13 A3007 RMK A01 T01570125  RH  081%=      5-min Rain = 0
KVA1 281043Z 22005KT 16/13 A3007 RMK A01 T01570125  RH  081%=      5-min Rain = 0
KVA1 281044Z 22004KT 16/13 A3007 RMK A01 T01570125  RH  081%=      5-min Rain = 0
KVA1 281045Z 23004KT 16/13 A3007 RMK A01 T01570125  RH  081%=      5-min Rain = 0
KVA1 281046Z 23004KT 16/12 A3007 RMK A01 T01560124  RH  081%=      5-min Rain = 0
KVA1 281047Z 24005KT 16/12 A3007 RMK A01 T01560124  RH  081%=      5-min Rain = 0
KVA1 281048Z 23005KT 16/12 A3007 RMK A01 T01550124  RH  082%=      5-min Rain = 0
KVA1 281049Z 23005KT 16/12 A3007 RMK A01 T01550124  RH  082%=      5-min Rain = 0
KVA1 281050Z 24005KT 16/12 A3007 RMK A01 T01550124  RH  082%=      5-min Rain = 0
KVA1 281051Z 24005KT 16/12 A3007 RMK A01 T01550124  RH  082%=      5-min Rain = 0
KVA1 281052Z 24005KT 16/12 A3007 RMK A01 T01550124  RH  082%=      5-min Rain = 0
KVA1 281053Z 23006KT 15/12 A3007 RMK A01 T01540124  RH  082%=      5-min Rain = 0
KVA1 281054Z 23006KT 15/12 A3007 RMK A01 T01540124  RH  082%=      5-min Rain = 0
KVA1 281055Z 23006KT 15/12 A3007 RMK A01 T01540124  RH  082%=      5-min Rain = 0
KVA1 281056Z 23006KT 15/12 A3007 RMK A01 T01540124  RH  082%=      5-min Rain = 0
KVA1 281057Z 23007KT 16/13 A3007 RMK A01 T01550125  RH  082%=      5-min Rain = 0
KVA1 281058Z 23005KT 16/13 A3007 RMK A01 T01560125  RH  082%=      5-min Rain = 0
KVA1 281059Z 23006KT 16/13 A3007 RMK A01 T01560125  RH  082%=      5-min Rain = 0
KVA1 281100Z 22006KT 16/13 A3007 RMK A01 T01560125  RH  082%=      5-min Rain = 0
KVA1 281101Z 22006KT 16/13 A3007 RMK A01 T01560125  RH  082%=      5-min Rain = 0
KVA1 281102Z 22006KT 16/13 A3007 RMK A01 T01560125  RH  082%=      5-min Rain = 0
KVA1 281103Z 22006KT 16/13 A3007 RMK A01 T01550125  RH  082%=      5-min Rain = 0
KVA1 281104Z 22007KT 16/13 A3007 RMK A01 T01560125  RH  082%=      5-min Rain = 0
KVA1 281105Z 22006KT 16/13 A3007 RMK A01 T01550125  RH  082%=      5-min Rain = 0
KVA1 281106Z 21006KT 16/13 A3007 RMK A01 T01550125  RH  082%=      5-min Rain = 0
KVA1 281107Z 22007KT 16/13 A3007 RMK A01 T01550125  RH  082%=      5-min Rain = 0
KVA1 281108Z 22006KT 16/13 A3007 RMK A01 T01550125  RH  082%=      5-min Rain = 0
KVA1 281109Z 22006KT 16/13 A3007 RMK A01 T01550125  RH  082%=      5-min Rain = 0
KVA1 281110Z 21006KT 16/13 A3007 RMK A01 T01550125  RH  082%=      5-min Rain = 0
KVA1 281111Z 21006KT 16/12 A3007 RMK A01 T01550124  RH  082%=      5-min Rain = 0
KVA1 281112Z 21005KT 16/13 A3007 RMK A01 T01550125  RH  082%=      5-min Rain = 0
KVA1 281113Z 21006KT 16/13 A3007 RMK A01 T01550125  RH  082%=      5-min Rain = 0
KVA1 281114Z 21006KT 15/12 A3007 RMK A01 T01540124  RH  082%=      5-min Rain = 0
KVA1 281115Z 22005KT 15/13 A3007 RMK A01 T01540125  RH  083%=      5-min Rain = 0
KVA1 281116Z 21005KT 15/13 A3007 RMK A01 T01540125  RH  083%=      5-min Rain = 0
KVA1 281117Z 21005KT 15/12 A3007 RMK A01 T01540124  RH  083%=      5-min Rain = 0
KVA1 281118Z 21005KT 15/13 A3007 RMK A01 T01540125  RH  083%=      5-min Rain = 0
KVA1 281119Z 21006KT 15/12 A3007 RMK A01 T01530124  RH  083%=      5-min Rain = 0
KVA1 281120Z 21006KT 15/13 A3007 RMK A01 T01540125  RH  083%=      5-min Rain = 0
KVA1 281121Z 22006KT 15/12 A3007 RMK A01 T01530124  RH  083%=      5-min Rain = 0
KVA1 281122Z 22005KT 15/12 A3007 RMK A01 T01530124  RH  083%=      5-min Rain = 0
KVA1 281123Z 22005KT 15/12 A3007 RMK A01 T01530124  RH  083%=      5-min Rain = 0
KVA1 281124Z 22006KT 15/12 A3007 RMK A01 T01530124  RH  083%=      5-min Rain = 0
KVA1 281125Z 22005KT 15/13 A3007 RMK A01 T01530125  RH  083%=      5-min Rain = 0
KVA1 281126Z 22005KT 15/12 A3007 RMK A01 T01520124  RH  083%=      5-min Rain = 0
KVA1 281127Z 21005KT 15/12 A3007 RMK A01 T01520124  RH  083%=      5-min Rain = 0
KVA1 281128Z 22006KT 15/12 A3007 RMK A01 T01520124  RH  083%=      5-min Rain = 0
KVA1 281129Z 22005KT 15/12 A3007 RMK A01 T01520124  RH  083%=      5-min Rain = 0
KVA1 281130Z 22005KT 15/12 A3007 RMK A01 T01520124  RH  083%=      5-min Rain = 0
KVA1 281131Z 22006KT 15/12 A3007 RMK A01 T01520124  RH  083%=      5-min Rain = 0
KVA1 281132Z 22005KT 15/12 A3007 RMK A01 T01520124  RH  083%=      5-min Rain = 0
KVA1 281133Z 22005KT 15/12 A3007 RMK A01 T01510124  RH  084%=      5-min Rain = 0
KVA1 281134Z 22005KT 15/12 A3007 RMK A01 T01510124  RH  084%=      5-min Rain = 0
KVA1 281135Z 22005KT 15/12 A3007 RMK A01 T01510124  RH  084%=      5-min Rain = 0
KVA1 281136Z 22006KT 15/12 A3007 RMK A01 T01500123  RH  084%=      5-min Rain = 0
KVA1 281137Z 22006KT 15/12 A3007 RMK A01 T01500124  RH  084%=      5-min Rain = 0
KVA1 281138Z 22006KT 15/12 A3007 RMK A01 T01500124  RH  084%=      5-min Rain = 0
KVA1 281139Z 23005KT 15/12 A3007 RMK A01 T01500123  RH  084%=      5-min Rain = 0
KVA1 281140Z 23005KT 15/12 A3007 RMK A01 T01500124  RH  084%=      5-min Rain = 0
KVA1 281141Z 23005KT 15/12 A3007 RMK A01 T01490123  RH  084%=      5-min Rain = 0
KVA1 281142Z 23005KT 15/12 A3007 RMK A01 T01490123  RH  085%=      5-min Rain = 0
KVA1 281143Z 23005KT 15/12 A3007 RMK A01 T01490123  RH  085%=      5-min Rain = 0
KVA1 281144Z 23005KT 15/12 A3008 RMK A01 T01480123  RH  085%=      5-min Rain = 0
KVA1 281145Z 23004KT 15/12 A3007 RMK A01 T01480123  RH  085%=      5-min Rain = 0
KVA1 281146Z 24005KT 15/12 A3007 RMK A01 T01480123  RH  085%=      5-min Rain = 0
KVA1 281147Z 24005KT 15/12 A3007 RMK A01 T01470123  RH  085%=      5-min Rain = 0
KVA1 281148Z 24005KT 15/12 A3007 RMK A01 T01480123  RH  085%=      5-min Rain = 0
KVA1 281149Z 24005KT 15/12 A3007 RMK A01 T01470122  RH  085%=      5-min Rain = 0
KVA1 281150Z 24004KT 15/12 A3008 RMK A01 T01470122  RH  085%=      5-min Rain = 0
KVA1 281151Z 24005KT 15/12 A3008 RMK A01 T01470122  RH  085%=      5-min Rain = 0
KVA1 281152Z 23005KT 15/12 A3008 RMK A01 T01460122  RH  085%=      5-min Rain = 0
KVA1 281153Z 23005KT 15/12 A3008 RMK A01 T01460122  RH  086%=      5-min Rain = 0
KVA1 281154Z 23005KT 15/12 A3008 RMK A01 T01460122  RH  086%=      5-min Rain = 0
KVA1 281155Z 23005KT 15/12 A3008 RMK A01 T01460122  RH  086%=      5-min Rain = 0
KVA1 281156Z 24004KT 15/12 A3008 RMK A01 T01460122  RH  086%=      5-min Rain = 0
KVA1 281157Z 24004KT 15/12 A3008 RMK A01 T01460122  RH  086%=      5-min Rain = 0
KVA1 281158Z 25005KT 15/12 A3008 RMK A01 T01450122  RH  086%=      5-min Rain = 0
KVA1 281159Z 25005KT 15/12 A3008 RMK A01 T01460122  RH  086%=      5-min Rain = 0
KVA1 281200Z 24005KT 15/12 A3008 RMK A01 T01450122  RH  086%=      5-min Rain = 0
KVA1 281201Z 25005KT 15/12 A3008 RMK A01 T01450122  RH  086%=      5-min Rain = 0
KVA1 281202Z 24005KT 15/12 A3008 RMK A01 T01450122  RH  086%=      5-min Rain = 0
KVA1 281203Z 24005KT 15/12 A3008 RMK A01 T01450122  RH  086%=      5-min Rain = 0
KVA1 281204Z 24004KT 15/12 A3008 RMK A01 T01450122  RH  086%=      5-min Rain = 0
KVA1 281205Z 23004KT 15/12 A3008 RMK A01 T01450122  RH  086%=      5-min Rain = 0
KVA1 281206Z 23004KT 14/12 A3008 RMK A01 T01440122  RH  086%=      5-min Rain = 0
KVA1 281207Z 22004KT 14/12 A3008 RMK A01 T01440122  RH  086%=      5-min Rain = 0
KVA1 281208Z 22004KT 14/12 A3008 RMK A01 T01440122  RH  086%=      5-min Rain = 0
KVA1 281209Z 22004KT 14/12 A3008 RMK A01 T01440122  RH  086%=      5-min Rain = 0
KVA1 281210Z 22005KT 14/12 A3008 RMK A01 T01440121  RH  086%=      5-min Rain = 0
KVA1 281211Z 22005KT 14/12 A3008 RMK A01 T01440122  RH  086%=      5-min Rain = 0
KVA1 281212Z 21005KT 14/12 A3008 RMK A01 T01440121  RH  086%=      5-min Rain = 0
KVA1 281213Z 21004KT 14/12 A3008 RMK A01 T01440121  RH  086%=      5-min Rain = 0
KVA1 281214Z 21004KT 14/12 A3008 RMK A01 T01440121  RH  086%=      5-min Rain = 0
KVA1 281215Z 21003KT 14/12 A3008 RMK A01 T01430121  RH  086%=      5-min Rain = 0
KVA1 281216Z 21003KT 14/12 A3008 RMK A01 T01430121  RH  087%=      5-min Rain = 0
KVA1 281217Z 20003KT 14/12 A3008 RMK A01 T01430121  RH  087%=      5-min Rain = 0
KVA1 281218Z 21003KT 14/12 A3008 RMK A01 T01430121  RH  087%=      5-min Rain = 0
KVA1 281219Z 21002KT 14/12 A3008 RMK A01 T01420121  RH  087%=      5-min Rain = 0
KVA1 281220Z 21002KT 14/12 A3008 RMK A01 T01420120  RH  087%=      5-min Rain = 0
KVA1 281221Z 20002KT 14/12 A3008 RMK A01 T01420120  RH  087%=      5-min Rain = 0
KVA1 281222Z 20002KT 14/12 A3008 RMK A01 T01420120  RH  087%=      5-min Rain = 0
KVA1 281223Z 20002KT 14/12 A3008 RMK A01 T01410120  RH  087%=      5-min Rain = 0
KVA1 281224Z 20003KT 14/12 A3008 RMK A01 T01410121  RH  087%=      5-min Rain = 0
KVA1 281225Z 20003KT 14/12 A3008 RMK A01 T01410121  RH  088%=      5-min Rain = 0
KVA1 281226Z 20003KT 14/12 A3008 RMK A01 T01410120  RH  088%=      5-min Rain = 0
KVA1 281227Z 21003KT 14/12 A3008 RMK A01 T01400120  RH  087%=      5-min Rain = 0
KVA1 281228Z 21004KT 14/12 A3008 RMK A01 T01400120  RH  088%=      5-min Rain = 0
KVA1 281229Z 21004KT 14/12 A3008 RMK A01 T01400120  RH  088%=      5-min Rain = 0
KVA1 281230Z 21004KT 14/12 A3008 RMK A01 T01390120  RH  088%=      5-min Rain = 0
KVA1 281231Z 21004KT 14/12 A3008 RMK A01 T01400120  RH  088%=      5-min Rain = 0
KVA1 281232Z 22005KT 14/12 A3008 RMK A01 T01400120  RH  088%=      5-min Rain = 0
KVA1 281233Z 22005KT 14/12 A3008 RMK A01 T01390119  RH  087%=      5-min Rain = 0
KVA1 281234Z 21005KT 14/12 A3008 RMK A01 T01390119  RH  088%=      5-min Rain = 0
KVA1 281235Z 21005KT 14/12 A3008 RMK A01 T01380118  RH  088%=      5-min Rain = 0
KVA1 281236Z 21005KT 14/12 A3008 RMK A01 T01380118  RH  088%=      5-min Rain = 0
KVA1 281237Z 21005KT 14/12 A3008 RMK A01 T01370118  RH  088%=      5-min Rain = 0
KVA1 281238Z 21005KT 14/12 A3008 RMK A01 T01370119  RH  089%=      5-min Rain = 0
KVA1 281239Z 21005KT 14/12 A3008 RMK A01 T01370119  RH  089%=      5-min Rain = 0
KVA1 281240Z 21005KT 14/12 A3008 RMK A01 T01380120  RH  089%=      5-min Rain = 0
KVA1 281241Z 21005KT 14/12 A3008 RMK A01 T01390121  RH  089%=      5-min Rain = 0
KVA1 281242Z 20005KT 14/12 A3008 RMK A01 T01390120  RH  088%=      5-min Rain = 0
KVA1 281243Z 20005KT 14/12 A3008 RMK A01 T01390120  RH  088%=      5-min Rain = 0
KVA1 281244Z 20005KT 14/12 A3008 RMK A01 T01400120  RH  088%=      5-min Rain = 0
KVA1 281245Z 20005KT 14/12 A3008 RMK A01 T01390120  RH  088%=      5-min Rain = 0
KVA1 281246Z 20006KT 14/12 A3008 RMK A01 T01390119  RH  088%=      5-min Rain = 0
KVA1 281247Z 20006KT 14/12 A3009 RMK A01 T01390119  RH  088%=      5-min Rain = 0
KVA1 281248Z 20006KT 14/12 A3009 RMK A01 T01390119  RH  088%=      5-min Rain = 0
KVA1 281249Z 19006KT 14/12 A3009 RMK A01 T01390119  RH  088%=      5-min Rain = 0
KVA1 281250Z 20006KT 14/12 A3009 RMK A01 T01390120  RH  088%=      5-min Rain = 0
KVA1 281251Z 19006KT 14/12 A3009 RMK A01 T01390120  RH  088%=      5-min Rain = 0
KVA1 281252Z 20006KT 14/12 A3009 RMK A01 T01390120  RH  088%=      5-min Rain = 0
KVA1 281253Z 19006KT 14/12 A3009 RMK A01 T01390120  RH  088%=      5-min Rain = 0
KVA1 281254Z 19006KT 14/12 A3009 RMK A01 T01390120  RH  088%=      5-min Rain = 0
KVA1 281255Z 19006KT 14/12 A3009 RMK A01 T01390120  RH  088%=      5-min Rain = 0
KVA1 281256Z 19006KT 14/12 A3009 RMK A01 T01400120  RH  088%=      5-min Rain = 0
KVA1 281257Z 18006KT 14/12 A3009 RMK A01 T01400120  RH  088%=      5-min Rain = 0
KVA1 281258Z 19006KT 14/12 A3009 RMK A01 T01400121  RH  088%=      5-min Rain = 0
KVA1 281259Z 19006KT 14/12 A3009 RMK A01 T01410121  RH  088%=      5-min Rain = 0
KVA1 281300Z 19006KT 14/12 A3009 RMK A01 T01410121  RH  088%=      5-min Rain = 0
KVA1 281301Z 19005KT 14/12 A3009 RMK A01 T01410121  RH  088%=      5-min Rain = 0
KVA1 281302Z 19005KT 14/12 A3009 RMK A01 T01420122  RH  088%=      5-min Rain = 0
KVA1 281303Z 19005KT 14/12 A3009 RMK A01 T01420122  RH  088%=      5-min Rain = 0
KVA1 281304Z 19005KT 14/12 A3009 RMK A01 T01430122  RH  087%=      5-min Rain = 0
KVA1 281305Z 20005KT 14/12 A3009 RMK A01 T01430122  RH  087%=      5-min Rain = 0
KVA1 281306Z 19005KT 14/12 A3009 RMK A01 T01430122  RH  087%=      5-min Rain = 0
KVA1 281307Z 19005KT 14/12 A3009 RMK A01 T01430122  RH  087%=      5-min Rain = 0
KVA1 281308Z 19005KT 14/12 A3009 RMK A01 T01440122  RH  087%=      5-min Rain = 0
KVA1 281309Z 19005KT 14/12 A3009 RMK A01 T01440122  RH  087%=      5-min Rain = 0
KVA1 281310Z 19005KT 14/12 A3009 RMK A01 T01440122  RH  087%=      5-min Rain = 0
KVA1 281311Z 19005KT 14/12 A3009 RMK A01 T01440123  RH  087%=      5-min Rain = 0
KVA1 281312Z 19005KT 14/12 A3009 RMK A01 T01440123  RH  087%=      5-min Rain = 0
KVA1 281313Z 19006KT 15/12 A3009 RMK A01 T01450123  RH  087%=      5-min Rain = 0
KVA1 281314Z 19005KT 15/12 A3009 RMK A01 T01450123  RH  087%=      5-min Rain = 0
KVA1 281315Z 20005KT 14/12 A3009 RMK A01 T01440122  RH  087%=      5-min Rain = 0
KVA1 281316Z 19005KT 15/12 A3009 RMK A01 T01450123  RH  087%=      5-min Rain = 0
KVA1 281317Z 19005KT 15/12 A3009 RMK A01 T01450123  RH  087%=      5-min Rain = 0
KVA1 281318Z 19005KT 14/12 A3009 RMK A01 T01440123  RH  087%=      5-min Rain = 0
KVA1 281319Z 20005KT 15/12 A3009 RMK A01 T01450123  RH  087%=      5-min Rain = 0
KVA1 281320Z 20006KT 15/12 A301 RMK A01 T01450123  RH  087%=      5-min Rain = 0
KVA1 281321Z 20005KT 15/12 A301 RMK A01 T01450123  RH  087%=      5-min Rain = 0
KVA1 281322Z 20005KT 15/12 A301 RMK A01 T01450123  RH  086%=      5-min Rain = 0
KVA1 281323Z 20005KT 15/12 A301 RMK A01 T01450123  RH  086%=      5-min Rain = 0
KVA1 281324Z 20005KT 15/12 A301 RMK A01 T01450123  RH  087%=      5-min Rain = 0
KVA1 281325Z 20005KT 15/12 A301 RMK A01 T01450123  RH  087%=      5-min Rain = 0
KVA1 281326Z 20005KT 15/12 A301 RMK A01 T01450123  RH  086%=      5-min Rain = 0
KVA1 281327Z 20005KT 15/12 A301 RMK A01 T01460123  RH  086%=      5-min Rain = 0
KVA1 281328Z 21005KT 15/12 A301 RMK A01 T01460123  RH  086%=      5-min Rain = 0
KVA1 281329Z 21004KT 15/12 A301 RMK A01 T01470123  RH  086%=      5-min Rain = 0
KVA1 281330Z 21005KT 15/12 A301 RMK A01 T01470124  RH  086%=      5-min Rain = 0
KVA1 281331Z 21006KT 15/12 A301 RMK A01 T01480124  RH  085%=      5-min Rain = 0
KVA1 281332Z 21005KT 15/12 A301 RMK A01 T01480123  RH  085%=      5-min Rain = 0
KVA1 281333Z 21006KT 15/12 A301 RMK A01 T01490124  RH  085%=      5-min Rain = 0
KVA1 281334Z 21006KT 15/12 A301 RMK A01 T01500124  RH  085%=      5-min Rain = 0
KVA1 281335Z 22006KT 15/13 A301 RMK A01 T01510125  RH  084%=      5-min Rain = 0
KVA1 281336Z 22006KT 15/13 A301 RMK A01 T01510125  RH  084%=      5-min Rain = 0
KVA1 281337Z 21006KT 15/13 A301 RMK A01 T01520125  RH  084%=      5-min Rain = 0
KVA1 281338Z 21007KT 15/13 A301 RMK A01 T01530125  RH  083%=      5-min Rain = 0
KVA1 281339Z 21006KT 16/13 A301 RMK A01 T01550126  RH  083%=      5-min Rain = 0
KVA1 281340Z 20007KT 16/13 A301 RMK A01 T01550126  RH  083%=      5-min Rain = 0
KVA1 281341Z 21006KT 16/13 A301 RMK A01 T01560126  RH  082%=      5-min Rain = 0
KVA1 281342Z 20007KT 16/13 A301 RMK A01 T01570126  RH  082%=      5-min Rain = 0
KVA1 281343Z 21007KT 16/13 A301 RMK A01 T01580126  RH  081%=      5-min Rain = 0
KVA1 281344Z 21007KT 16/13 A301 RMK A01 T01590127  RH  081%=      5-min Rain = 0
KVA1 281345Z 21006KT 16/13 A301 RMK A01 T01590126  RH  081%=      5-min Rain = 0
KVA1 281346Z 20007KT 16/13 A301 RMK A01 T01600127  RH  081%=      5-min Rain = 0
KVA1 281347Z 21006KT 16/13 A3011 RMK A01 T01600127  RH  080%=      5-min Rain = 0
KVA1 281348Z 20009KT 16/13 A3011 RMK A01 T01610127  RH  080%=      5-min Rain = 0
KVA1 281349Z 20008KT 16/13 A3011 RMK A01 T01610126  RH  080%=      5-min Rain = 0
KVA1 281350Z 20008KT 16/13 A3011 RMK A01 T01610126  RH  080%=      5-min Rain = 0
KVA1 281351Z 21007KT 16/13 A3011 RMK A01 T01610126  RH  080%=      5-min Rain = 0
KVA1 281352Z 20008KT 16/13 A3011 RMK A01 T01610126  RH  080%=      5-min Rain = 0
KVA1 281353Z 20008KT 16/13 A3011 RMK A01 T01610127  RH  080%=      5-min Rain = 0
KVA1 281354Z 20007KT 16/13 A3011 RMK A01 T01610127  RH  080%=      5-min Rain = 0
KVA1 281355Z 20008KT 16/13 A3011 RMK A01 T01600126  RH  080%=      5-min Rain = 0
KVA1 281356Z 20009KT 16/13 A3011 RMK A01 T01600126  RH  081%=      5-min Rain = 0
KVA1 281357Z 20006KT 16/13 A3011 RMK A01 T01600127  RH  081%=      5-min Rain = 0
KVA1 281358Z 20009KT 16/13 A3011 RMK A01 T01600127  RH  081%=      5-min Rain = 0
KVA1 281359Z 21008KT 16/13 A3011 RMK A01 T01590126  RH  081%=      5-min Rain = 0
KVA1 281400Z 20010KT 16/13 A3011 RMK A01 T01590126  RH  081%=      5-min Rain = 0
KVA1 281401Z 21007KT 16/13 A3011 RMK A01 T01580126  RH  081%=      5-min Rain = 0
KVA1 281402Z 21007KT 16/13 A3011 RMK A01 T01580125  RH  081%=      5-min Rain = 0
KVA1 281403Z 20008KT 16/13 A3011 RMK A01 T01570125  RH  081%=      5-min Rain = 0
KVA1 281404Z 21007KT 16/13 A3011 RMK A01 T01570126  RH  082%=      5-min Rain = 0
KVA1 281405Z 21007KT 16/13 A3011 RMK A01 T01570126  RH  082%=      5-min Rain = 0
KVA1 281406Z 21008KT 16/13 A3011 RMK A01 T01570125  RH  081%=      5-min Rain = 0
KVA1 281407Z 21007KT 16/13 A3011 RMK A01 T01570125  RH  081%=      5-min Rain = 0
KVA1 281408Z 20009KT 16/13 A3011 RMK A01 T01570126  RH  082%=      5-min Rain = 0
KVA1 281409Z 21007KT 16/13 A3011 RMK A01 T01570126  RH  082%=      5-min Rain = 0
KVA1 281410Z 21008KT 16/13 A3011 RMK A01 T01580126  RH  081%=      5-min Rain = 0
KVA1 281411Z 21008KT 16/13 A3011 RMK A01 T01580126  RH  081%=      5-min Rain = 0
KVA1 281412Z 21008KT 16/13 A3011 RMK A01 T01590126  RH  081%=      5-min Rain = 0
KVA1 281413Z 21006KT 16/13 A3011 RMK A01 T01600127  RH  080%=      5-min Rain = 0
KVA1 281414Z 20008KT 16/13 A3011 RMK A01 T01610127  RH  080%=      5-min Rain = 0
KVA1 281415Z 22008KT 16/13 A3011 RMK A01 T01620127  RH  080%=      5-min Rain = 0
KVA1 281416Z 22007KT 16/13 A3011 RMK A01 T01630128  RH  080%=      5-min Rain = 0
KVA1 281417Z 21007KT 16/13 A3011 RMK A01 T01630128  RH  080%=      5-min Rain = 0
KVA1 281418Z 21006KT 16/13 A3011 RMK A01 T01630128  RH  080%=      5-min Rain = 0
KVA1 281419Z 22006KT 16/13 A3011 RMK A01 T01630127  RH  080%=      5-min Rain = 0
KVA1 281420Z 21006KT 16/13 A3012 RMK A01 T01620127  RH  080%=      5-min Rain = 0
KVA1 281421Z 21008KT 16/13 A3012 RMK A01 T01630128  RH  080%=      5-min Rain = 0
KVA1 281422Z 21008KT 16/13 A3012 RMK A01 T01630128  RH  079%=      5-min Rain = 0
KVA1 281423Z 21007KT 16/13 A3012 RMK A01 T01630128  RH  080%=      5-min Rain = 0
KVA1 281424Z 21008KT 16/13 A3012 RMK A01 T01630128  RH  079%=      5-min Rain = 0
KVA1 281425Z 21006KT 16/13 A3012 RMK A01 T01640128  RH  079%=      5-min Rain = 0
KVA1 281426Z 21007KT 16/13 A3012 RMK A01 T01640128  RH  079%=      5-min Rain = 0
KVA1 281427Z 21008KT 16/13 A3012 RMK A01 T01640128  RH  079%=      5-min Rain = 0
KVA1 281428Z 21007KT 16/13 A3012 RMK A01 T01640128  RH  079%=      5-min Rain = 0
KVA1 281429Z 21009KT 16/13 A3012 RMK A01 T01640128  RH  079%=      5-min Rain = 0
KVA1 281430Z 21008KT 16/13 A3012 RMK A01 T01630128  RH  080%=      5-min Rain = 0
KVA1 281431Z 21006KT 16/13 A3012 RMK A01 T01630128  RH  080%=      5-min Rain = 0
KVA1 281432Z 21008KT 16/13 A3012 RMK A01 T01630128  RH  080%=      5-min Rain = 0
KVA1 281433Z 20007KT 16/13 A3012 RMK A01 T01630128  RH  080%=      5-min Rain = 0
KVA1 281434Z 20007KT 16/13 A3012 RMK A01 T01630128  RH  080%=      5-min Rain = 0
KVA1 281435Z 21007KT 16/13 A3012 RMK A01 T01640129  RH  080%=      5-min Rain = 0
KVA1 281436Z 21007KT 16/13 A3012 RMK A01 T01640128  RH  079%=      5-min Rain = 0
KVA1 281437Z 21007KT 16/13 A3012 RMK A01 T01640128  RH  079%=      5-min Rain = 0
KVA1 281438Z 21006KT 17/13 A3012 RMK A01 T01650129  RH  079%=      5-min Rain = 0
KVA1 281439Z 21008KT 17/13 A3012 RMK A01 T01660129  RH  079%=      5-min Rain = 0
KVA1 281440Z 21007KT 17/13 A3012 RMK A01 T01660129  RH  078%=      5-min Rain = 0
KVA1 281441Z 21007KT 17/13 A3012 RMK A01 T01670129  RH  078%=      5-min Rain = 0
KVA1 281442Z 21006KT 17/13 A3012 RMK A01 T01680130  RH  078%=      5-min Rain = 0
KVA1 281443Z 21008KT 17/13 A3012 RMK A01 T01700130  RH  077%=      5-min Rain = 0
KVA1 281444Z 22007KT 17/13 A3012 RMK A01 T01700129  RH  077%=      5-min Rain = 0
KVA1 281445Z 21007KT 17/13 A3012 RMK A01 T01710129  RH  076%=      5-min Rain = 0
KVA1 281446Z 22007KT 17/13 A3012 RMK A01 T01720130  RH  076%=      5-min Rain = 0
KVA1 281447Z 21008KT 17/13 A3012 RMK A01 T01730130  RH  076%=      5-min Rain = 0
KVA1 281448Z 21007KT 17/13 A3012 RMK A01 T01730129  RH  075%=      5-min Rain = 0
KVA1 281449Z 21009KT 18/13 A3012 RMK A01 T01750131  RH  075%=      5-min Rain = 0
KVA1 281450Z 21008KT 18/13 A3012 RMK A01 T01760130  RH  074%=      5-min Rain = 0
KVA1 281451Z 21009KT 18/13 A3012 RMK A01 T01770131  RH  074%=      5-min Rain = 0
KVA1 281452Z 21009KT 18/13 A3012 RMK A01 T01780130  RH  074%=      5-min Rain = 0
KVA1 281453Z 21007KT 18/13 A3012 RMK A01 T01790131  RH  073%=      5-min Rain = 0
KVA1 281454Z 22009KT 18/13 A3012 RMK A01 T01800132  RH  073%=      5-min Rain = 0
KVA1 281455Z 21009KT 18/13 A3012 RMK A01 T01810131  RH  072%=      5-min Rain = 0
KVA1 281456Z 21009KT 18/13 A3012 RMK A01 T01810131  RH  072%=      5-min Rain = 0
KVA1 281457Z 22010KT 18/13 A3012 RMK A01 T01820131  RH  072%=      5-min Rain = 0
KVA1 281458Z 21010KT 18/13 A3012 RMK A01 T01830131  RH  072%=      5-min Rain = 0
KVA1 281459Z 21011KT 18/13 A3012 RMK A01 T01830131  RH  071%=      5-min Rain = 0
KVA1 281500Z 21010KT 18/13 A3012 RMK A01 T01830130  RH  071%=      5-min Rain = 0
KVA1 281501Z 21009KT 18/13 A3012 RMK A01 T01830131  RH  072%=      5-min Rain = 0
KVA1 281502Z 21009KT 18/13 A3012 RMK A01 T01830131  RH  072%=      5-min Rain = 0
KVA1 281503Z 21008KT 18/13 A3012 RMK A01 T01840132  RH  071%=      5-min Rain = 0
KVA1 281504Z 20009KT 19/13 A3012 RMK A01 T01850131  RH  071%=      5-min Rain = 0
KVA1 281505Z 20008KT 19/13 A3012 RMK A01 T01850131  RH  071%=      5-min Rain = 0
KVA1 281506Z 20009KT 19/13 A3012 RMK A01 T01850131  RH  071%=      5-min Rain = 0
KVA1 281507Z 20008KT 19/13 A3012 RMK A01 T01860131  RH  071%=      5-min Rain = 0
KVA1 281508Z 21010KT 19/13 A3012 RMK A01 T01870132  RH  070%=      5-min Rain = 0
KVA1 281509Z 21008KT 19/13 A3012 RMK A01 T01870131  RH  070%=      5-min Rain = 0
KVA1 281510Z 21007KT 19/13 A3012 RMK A01 T01890133  RH  070%=      5-min Rain = 0
KVA1 281511Z 21007KT 19/13 A3012 RMK A01 T01910133  RH  069%=      5-min Rain = 0
KVA1 281512Z 20009KT 19/13 A3012 RMK A01 T01920133  RH  068%=      5-min Rain = 0
KVA1 281513Z 20009KT 19/13 A3012 RMK A01 T01920133  RH  068%=      5-min Rain = 0
KVA1 281514Z 20009KT 19/13 A3011 RMK A01 T01930132  RH  068%=      5-min Rain = 0
KVA1 281515Z 20007KT 19/13 A3011 RMK A01 T01930133  RH  068%=      5-min Rain = 0
KVA1 281516Z 21008KT 20/13 A3011 RMK A01 T01950133  RH  067%=      5-min Rain = 0
KVA1 281517Z 20009KT 20/13 A3011 RMK A01 T01960133  RH  067%=      5-min Rain = 0
KVA1 281518Z 20009KT 20/13 A3011 RMK A01 T01950133  RH  067%=      5-min Rain = 0
KVA1 281519Z 20009KT 19/13 A3011 RMK A01 T01930132  RH  068%=      5-min Rain = 0
KVA1 281520Z 20008KT 19/13 A3011 RMK A01 T01930132  RH  068%=      5-min Rain = 0
KVA1 281521Z 21007KT 19/13 A3011 RMK A01 T01930133  RH  068%=      5-min Rain = 0
KVA1 281522Z 20009KT 20/13 A3011 RMK A01 T01950133  RH  067%=      5-min Rain = 0
KVA1 281523Z 21010KT 20/13 A3012 RMK A01 T01960132  RH  067%=      5-min Rain = 0
KVA1 281524Z 20009KT 20/13 A3012 RMK A01 T01960133  RH  067%=      5-min Rain = 0
KVA1 281525Z 20009KT 20/13 A3011 RMK A01 T01960132  RH  067%=      5-min Rain = 0
KVA1 281526Z 20009KT 20/13 A3011 RMK A01 T01960132  RH  067%=      5-min Rain = 0
KVA1 281527Z 21007KT 20/13 A3011 RMK A01 T01970132  RH  066%=      5-min Rain = 0
KVA1 281528Z 20009KT 20/13 A3011 RMK A01 T01970132  RH  066%=      5-min Rain = 0
KVA1 281529Z 20010KT 20/13 A3011 RMK A01 T01980132  RH  066%=      5-min Rain = 0
KVA1 281530Z 20010KT 20/13 A3011 RMK A01 T01980132  RH  066%=      5-min Rain = 0
KVA1 281531Z 21007KT 20/13 A3011 RMK A01 T01980132  RH  066%=      5-min Rain = 0
KVA1 281532Z 21009KT 20/13 A3011 RMK A01 T02000133  RH  065%=      5-min Rain = 0
KVA1 281533Z 20009KT 20/13 A3011 RMK A01 T02010131  RH  064%=      5-min Rain = 0
KVA1 281534Z 21009KT 20/13 A3011 RMK A01 T02010131  RH  064%=      5-min Rain = 0
KVA1 281535Z 21010KT 20/13 A3011 RMK A01 T02020131  RH  064%=      5-min Rain = 0
KVA1 281536Z 20009KT 20/13 A3011 RMK A01 T02000131  RH  064%=      5-min Rain = 0
KVA1 281537Z 21010KT 20/13 A3011 RMK A01 T01990131  RH  065%=      5-min Rain = 0
KVA1 281538Z 21010KT 20/13 A3011 RMK A01 T02000131  RH  064%=      5-min Rain = 0
KVA1 281539Z 22009KT 20/13 A3011 RMK A01 T02000131  RH  064%=      5-min Rain = 0
KVA1 281540Z 22008KT 20/13 A3011 RMK A01 T02010131  RH  064%=      5-min Rain = 0
KVA1 281541Z 21008KT 20/13 A3011 RMK A01 T02020132  RH  064%=      5-min Rain = 0
KVA1 281542Z 21009KT 20/13 A3011 RMK A01 T02030132  RH  064%=      5-min Rain = 0
KVA1 281543Z 20010KT 20/13 A3011 RMK A01 T02040132  RH  063%=      5-min Rain = 0
KVA1 281544Z 21010KT 20/13 A3011 RMK A01 T02030131  RH  063%=      5-min Rain = 0
KVA1 281545Z 20010KT 20/13 A3011 RMK A01 T02020131  RH  064%=      5-min Rain = 0
KVA1 281546Z 21009KT 20/13 A3011 RMK A01 T02020131  RH  064%=      5-min Rain = 0
KVA1 281547Z 20009KT 20/13 A3011 RMK A01 T02030132  RH  063%=      5-min Rain = 0
KVA1 281548Z 20010KT 21/13 A3011 RMK A01 T02050131  RH  063%=      5-min Rain = 0
KVA1 281549Z 20008KT 21/13 A3011 RMK A01 T02050131  RH  063%=      5-min Rain = 0
KVA1 281550Z 20009KT 21/13 A3011 RMK A01 T02060131  RH  062%=      5-min Rain = 0
KVA1 281551Z 20009KT 21/13 A3011 RMK A01 T02070131  RH  062%=      5-min Rain = 0
KVA1 281552Z 21009KT 21/13 A3011 RMK A01 T02070131  RH  062%=      5-min Rain = 0
KVA1 281553Z 20010KT 21/13 A3011 RMK A01 T02080131  RH  061%=      5-min Rain = 0
KVA1 281554Z 21010KT 21/13 A3011 RMK A01 T02090130  RH  061%=      5-min Rain = 0
KVA1 281555Z 21008KT 21/13 A3011 RMK A01 T02080130  RH  061%=      5-min Rain = 0
KVA1 281556Z 21010KT 21/13 A3011 RMK A01 T02100130  RH  060%=      5-min Rain = 0
KVA1 281557Z 21009KT 21/13 A3011 RMK A01 T02100129  RH  060%=      5-min Rain = 0
KVA1 281558Z 20009KT 21/13 A3011 RMK A01 T02100129  RH  060%=      5-min Rain = 0
KVA1 281559Z 20010KT 21/13 A3011 RMK A01 T02120128  RH  059%=      5-min Rain = 0
KVA1 281600Z 20009KT 21/13 A3011 RMK A01 T02120127  RH  058%=      5-min Rain = 0
KVA1 281601Z 20010KT 21/13 A3011 RMK A01 T02130126  RH  058%=      5-min Rain = 0
KVA1 281602Z 20009KT 21/13 A3011 RMK A01 T02140126  RH  057%=      5-min Rain = 0
KVA1 281603Z 20009KT 22/13 A3011 RMK A01 T02150125  RH  056%=      5-min Rain = 0
KVA1 281604Z 20008KT 22/12 A3011 RMK A01 T02170124  RH  055%=      5-min Rain = 0
KVA1 281605Z 21007KT 22/12 A3011 RMK A01 T02190122  RH  054%=      5-min Rain = 0
KVA1 281606Z 20008KT 22/12 A3011 RMK A01 T02220120  RH  052%=      5-min Rain = 0
KVA1 281607Z 20010KT 22/12 A3011 RMK A01 T02240121  RH  052%=      5-min Rain = 0
KVA1 281608Z 20010KT 23/12 A3011 RMK A01 T02250119  RH  051%=      5-min Rain = 0
KVA1 281609Z 21008KT 22/12 A3011 RMK A01 T02240119  RH  051%=      5-min Rain = 0
KVA1 281610Z 21008KT 23/12 A3011 RMK A01 T02250119  RH  051%=      5-min Rain = 0
KVA1 281611Z 21008KT 23/12 A3011 RMK A01 T02260118  RH  050%=      5-min Rain = 0
KVA1 281612Z 19009KT 23/12 A3011 RMK A01 T02250117  RH  050%=      5-min Rain = 0
KVA1 281613Z 20009KT 23/12 A3011 RMK A01 T02250117  RH  050%=      5-min Rain = 0
KVA1 281614Z 20010KT 23/11 A3011 RMK A01 T02260111  RH  048%=      5-min Rain = 0
KVA1 281615Z 20008KT 23/11 A3011 RMK A01 T02270108  RH  047%=      5-min Rain = 0
KVA1 281616Z 20008KT 23/11 A3011 RMK A01 T02280107  RH  046%=      5-min Rain = 0
KVA1 281617Z 18009KT 23/11 A3011 RMK A01 T02280111  RH  048%=      5-min Rain = 0
KVA1 281618Z 18009KT 23/12 A3011 RMK A01 T02280115  RH  049%=      5-min Rain = 0
KVA1 281619Z 19009KT 23/12 A3011 RMK A01 T02290121  RH  050%=      5-min Rain = 0
KVA1 281620Z 19010KT 23/12 A3011 RMK A01 T02290121  RH  050%=      5-min Rain = 0
KVA1 281621Z 18010KT 23/12 A3011 RMK A01 T02300118  RH  049%=      5-min Rain = 0
KVA1 281622Z 18009KT 23/11 A3011 RMK A01 T02320114  RH  047%=      5-min Rain = 0
KVA1 281623Z 18010KT 23/11 A3011 RMK A01 T02340105  RH  044%=      5-min Rain = 0
KVA1 281624Z 18010KT 24/10 A3011 RMK A01 T02350100  RH  042%=      5-min Rain = 0
KVA1 281625Z 18008KT 24/10 A3011 RMK A01 T02360098  RH  042%=      5-min Rain = 0
KVA1 281626Z 19008KT 24/09 A3011 RMK A01 T02390091  RH  039%=      5-min Rain = 0
KVA1 281627Z 18008KT 24/07 A3011 RMK A01 T02410073  RH  034%=      5-min Rain = 0
KVA1 281628Z 18008KT 24/07 A3011 RMK A01 T02410068  RH  033%=      5-min Rain = 0
KVA1 281629Z 18008KT 24/06 A3011 RMK A01 T02440058  RH  030%=      5-min Rain = 0
KVA1 281630Z 20008KT 25/05 A3011 RMK A01 T02460054  RH  029%=      5-min Rain = 0
KVA1 281631Z 19010KT 25/06 A3011 RMK A01 T02490056  RH  029%=      5-min Rain = 0
KVA1 281632Z 18010KT 25/06 A3011 RMK A01 T02480058  RH  029%=      5-min Rain = 0
KVA1 281633Z 18009KT 25/06 A3011 RMK A01 T02480060  RH  030%=      5-min Rain = 0
KVA1 281634Z 18010KT 25/06 A3011 RMK A01 T02460058  RH  030%=      5-min Rain = 0
KVA1 281635Z 19007KT 25/06 A3011 RMK A01 T02470057  RH  029%=      5-min Rain = 0
KVA1 281636Z 19008KT 25/06 A3011 RMK A01 T02500055  RH  029%=      5-min Rain = 0
KVA1 281637Z 17008KT 25/05 A3011 RMK A01 T02500053  RH  028%=      5-min Rain = 0
KVA1 281638Z 18010KT 25/05 A3011 RMK A01 T02510051  RH  028%=      5-min Rain = 0
KVA1 281639Z 21010KT 25/06 A3011 RMK A01 T02530056  RH  028%=      5-min Rain = 0
KVA1 281640Z 19010KT 25/05 A3011 RMK A01 T02510052  RH  028%=      5-min Rain = 0
KVA1 281641Z 18008KT 25/05 A3011 RMK A01 T02510050  RH  027%=      5-min Rain = 0
KVA1 281642Z 19008G13KT 25/05 A3011 RMK A01 T02520050  RH  027%=      5-min Rain = 0
KVA1 281643Z 18011KT 25/05 A3011 RMK A01 T02530052  RH  027%=      5-min Rain = 0
KVA1 281644Z 18011KT 25/05 A3011 RMK A01 T02540052  RH  027%=      5-min Rain = 0
KVA1 281645Z 18010KT 25/06 A3011 RMK A01 T02530055  RH  028%=      5-min Rain = 0
KVA1 281646Z 19009KT 25/06 A3011 RMK A01 T02530061  RH  029%=      5-min Rain = 0
KVA1 281647Z 18008KT 25/06 A3011 RMK A01 T02530062  RH  029%=      5-min Rain = 0
KVA1 281648Z 18009KT 25/06 A3011 RMK A01 T02530063  RH  029%=      5-min Rain = 0
KVA1 281649Z 19009KT 25/05 A3011 RMK A01 T02530054  RH  028%=      5-min Rain = 0
KVA1 281650Z 19008KT 25/06 A3011 RMK A01 T02510056  RH  029%=      5-min Rain = 0
KVA1 281651Z 18009KT 25/06 A3011 RMK A01 T02530061  RH  029%=      5-min Rain = 0
KVA1 281652Z 18009KT 25/06 A3011 RMK A01 T02520063  RH  030%=      5-min Rain = 0
KVA1 281653Z 17008KT 25/07 A3011 RMK A01 T02520066  RH  030%=      5-min Rain = 0
KVA1 281654Z 18010KT 25/07 A301 RMK A01 T02520067  RH  031%=      5-min Rain = 0
KVA1 281655Z 17010KT 25/07 A301 RMK A01 T02500069  RH  031%=      5-min Rain = 0
KVA1 281656Z 18009KT 25/07 A301 RMK A01 T02480069  RH  032%=      5-min Rain = 0
KVA1 281657Z 17010KT 25/07 A301 RMK A01 T02480071  RH  032%=      5-min Rain = 0
KVA1 281658Z 18009KT 25/07 A301 RMK A01 T02490071  RH  032%=      5-min Rain = 0
KVA1 281659Z 18007KT 25/07 A301 RMK A01 T02490072  RH  032%=      5-min Rain = 0
KVA1 281700Z 19009KT 25/08 A301 RMK A01 T02500076  RH  033%=      5-min Rain = 0
KVA1 281701Z 19008KT 25/07 A301 RMK A01 T02500074  RH  032%=      5-min Rain = 0
KVA1 281702Z 20007KT 25/08 A301 RMK A01 T02510076  RH  033%=      5-min Rain = 0
KVA1 281703Z 19004KT 25/08 A301 RMK A01 T02530076  RH  032%=      5-min Rain = 0
KVA1 281704Z 18004KT 26/08 A301 RMK A01 T02550076  RH  032%=      5-min Rain = 0
KVA1 281705Z 24005KT 26/07 A301 RMK A01 T02560070  RH  030%=      5-min Rain = 0
KVA1 281706Z 21005KT 26/06 A301 RMK A01 T02550061  RH  029%=      5-min Rain = 0
KVA1 281707Z 23005KT 26/06 A301 RMK A01 T02550056  RH  028%=      5-min Rain = 0
KVA1 281708Z 22006KT 26/05 A301 RMK A01 T02570051  RH  027%=      5-min Rain = 0
KVA1 281709Z 20006KT 26/04 A301 RMK A01 T02590039  RH  024%=      5-min Rain = 0
KVA1 281710Z 23006KT 26/04 A301 RMK A01 T02610036  RH  023%=      5-min Rain = 0
KVA1 281711Z 26005KT 26/04 A301 RMK A01 T02620039  RH  024%=      5-min Rain = 0
KVA1 281712Z 25007KT 27/04 A301 RMK A01 T02670041  RH  023%=      5-min Rain = 0
KVA1 281713Z 26005KT 27/04 A301 RMK A01 T02670036  RH  023%=      5-min Rain = 0
KVA1 281714Z 26006KT 27/04 A301 RMK A01 T02650037  RH  023%=      5-min Rain = 0
KVA1 281715Z 26006KT 27/04 A301 RMK A01 T02650039  RH  023%=      5-min Rain = 0
KVA1 281716Z 25003KT 27/04 A301 RMK A01 T02660038  RH  023%=      5-min Rain = 0
KVA1 281717Z 26004KT 27/04 A301 RMK A01 T02660038  RH  023%=      5-min Rain = 0
KVA1 281718Z 30005KT 27/04 A301 RMK A01 T02660041  RH  024%=      5-min Rain = 0
KVA1 281719Z 30005KT 27/04 A301 RMK A01 T02680042  RH  023%=      5-min Rain = 0
KVA1 281720Z 23004KT 27/05 A3009 RMK A01 T02690046  RH  024%=      5-min Rain = 0
KVA1 281721Z 31003KT 27/05 A3009 RMK A01 T02730047  RH  024%=      5-min Rain = 0
KVA1 281722Z 25005KT 27/05 A3009 RMK A01 T02740048  RH  024%=      5-min Rain = 0
KVA1 281723Z 25006KT 28/05 A3009 RMK A01 T02760052  RH  024%=      5-min Rain = 0
KVA1 281724Z 25007KT 28/05 A3009 RMK A01 T02790050  RH  023%=      5-min Rain = 0
KVA1 281725Z 26010KT 28/05 A3009 RMK A01 T02800047  RH  023%=      5-min Rain = 0
KVA1 281726Z 25009KT 28/04 A3009 RMK A01 T02790043  RH  022%=      5-min Rain = 0
KVA1 281727Z 25008KT 28/04 A3009 RMK A01 T02770044  RH  022%=      5-min Rain = 0
KVA1 281728Z 24008KT 28/04 A3009 RMK A01 T02790042  RH  022%=      5-min Rain = 0
KVA1 281729Z 25009KT 28/04 A3009 RMK A01 T02770040  RH  022%=      5-min Rain = 0
KVA1 281730Z 24009KT 28/04 A3009 RMK A01 T02750036  RH  022%=      5-min Rain = 0
KVA1 281731Z 25010KT 28/04 A3009 RMK A01 T02750036  RH  021%=      5-min Rain = 0
KVA1 281732Z 28006KT 28/04 A3009 RMK A01 T02760037  RH  022%=      5-min Rain = 0
KVA1 281733Z 27008KT 28/04 A3009 RMK A01 T02780038  RH  021%=      5-min Rain = 0
KVA1 281734Z 28010KT 28/04 A3009 RMK A01 T02770036  RH  021%=      5-min Rain = 0
KVA1 281735Z 27009KT 28/03 A3009 RMK A01 T02750034  RH  021%=      5-min Rain = 0
KVA1 281736Z 26009KT 27/03 A3009 RMK A01 T02730027  RH  020%=      5-min Rain = 0
KVA1 281737Z 26008KT 27/02 A3009 RMK A01 T02720022  RH  020%=      5-min Rain = 0
KVA1 281738Z 27008KT 27/02 A3009 RMK A01 T02730023  RH  020%=      5-min Rain = 0
KVA1 281739Z 26009KT 28/02 A3009 RMK A01 T02750017  RH  019%=      5-min Rain = 0
KVA1 281740Z 27008KT 28/02 A3009 RMK A01 T02750019  RH  019%=      5-min Rain = 0
KVA1 281741Z 27009KT 28/02 A3009 RMK A01 T02770022  RH  019%=      5-min Rain = 0
KVA1 281742Z 29008KT 28/02 A3009 RMK A01 T02770024  RH  020%=      5-min Rain = 0
KVA1 281743Z 28011KT 28/03 A3009 RMK A01 T02770025  RH  020%=      5-min Rain = 0
KVA1 281744Z 29011KT 28/03 A3009 RMK A01 T02780029  RH  020%=      5-min Rain = 0
KVA1 281745Z 29007KT 28/03 A3009 RMK A01 T02760029  RH  020%=      5-min Rain = 0
KVA1 281746Z 27007KT 28/03 A3009 RMK A01 T02750030  RH  021%=      5-min Rain = 0
KVA1 281747Z 28008KT 28/04 A3008 RMK A01 T02750035  RH  021%=      5-min Rain = 0
KVA1 281748Z 28009KT 28/04 A3009 RMK A01 T02770037  RH  021%=      5-min Rain = 0
KVA1 281749Z 27007KT 28/03 A3008 RMK A01 T02760034  RH  021%=      5-min Rain = 0
KVA1 281750Z 28007KT 28/03 A3008 RMK A01 T02760032  RH  021%=      5-min Rain = 0
KVA1 281751Z 27006KT 28/03 A3008 RMK A01 T02770025  RH  020%=      5-min Rain = 0
KVA1 281752Z 29007KT 28/02 A3008 RMK A01 T02790023  RH  019%=      5-min Rain = 0
KVA1 281753Z 30005KT 28/02 A3008 RMK A01 T02790022  RH  019%=      5-min Rain = 0
KVA1 281754Z 30003KT 28/03 A3008 RMK A01 T02770025  RH  020%=      5-min Rain = 0
KVA1 281755Z 31002KT 28/02 A3008 RMK A01 T02760020  RH  019%=      5-min Rain = 0
KVA1 281756Z 26005KT 28/02 A3008 RMK A01 T02760017  RH  019%=      5-min Rain = 0
KVA1 281757Z 26008KT 28/01 A3008 RMK A01 T02780011  RH  018%=      5-min Rain = 0
KVA1 281758Z 26007KT 28/02 A3008 RMK A01 T02790016  RH  018%=      5-min Rain = 0
KVA1 281759Z 27008G13KT 28/02 A3008 RMK A01 T02840018  RH  018%=      5-min Rain = 0
KVA1 281800Z 26008KT 29/02 A3008 RMK A01 T02850019  RH  018%=      5-min Rain = 0
KVA1 281801Z 27009KT 29/02 A3008 RMK A01 T02850019  RH  018%=      5-min Rain = 0
KVA1 281802Z 27007KT 28/02 A3008 RMK A01 T02830017  RH  018%=      5-min Rain = 0
KVA1 281803Z 26008KT 28/02 A3008 RMK A01 T02840019  RH  018%=      5-min Rain = 0
KVA1 281804Z 27008KT 29/01 A3008 RMK A01 T02860014  RH  017%=      5-min Rain = 0
KVA1 281805Z 27007KT 29/01 A3008 RMK A01 T02880014  RH  017%=      5-min Rain = 0
KVA1 281806Z 26007KT 29/01 A3008 RMK A01 T02880011  RH  017%=      5-min Rain = 0
KVA1 281807Z 29011KT 29/01 A3008 RMK A01 T02880012  RH  017%=      5-min Rain = 0
KVA1 281808Z 28010KT 29/01 A3008 RMK A01 T02870008  RH  016%=      5-min Rain = 0
KVA1 281809Z 28008KT 28/01 A3008 RMK A01 T02810006  RH  017%=      5-min Rain = 0
KVA1 281810Z 27007KT 28/01 A3008 RMK A01 T02800007  RH  017%=      5-min Rain = 0
KVA1 281811Z 25007KT 28/01 A3007 RMK A01 T02800010  RH  017%=      5-min Rain = 0
KVA1 281812Z 24007KT 29/02 A3007 RMK A01 T02850017  RH  018%=      5-min Rain = 0
KVA1 281813Z 25007KT 29/02 A3007 RMK A01 T02870016  RH  017%=      5-min Rain = 0
KVA1 281814Z 29009G14KT 29/01 A3007 RMK A01 T02890013  RH  017%=      5-min Rain = 0
KVA1 281815Z 28009KT 29/01 A3007 RMK A01 T02880008  RH  016%=      5-min Rain = 0
KVA1 281816Z 25010KT 29/01 A3007 RMK A01 T02860007  RH  016%=      5-min Rain = 0
KVA1 281817Z 26010KT 28/01 A3007 RMK A01 T02840006  RH  016%=      5-min Rain = 0
KVA1 281818Z 26008KT 28/01 A3007 RMK A01 T02830007  RH  017%=      5-min Rain = 0
KVA1 281819Z 26011KT 28/00 A3007 RMK A01 T02830004  RH  016%=      5-min Rain = 0
KVA1 281820Z 24010KT 28/00 A3007 RMK A01 T02840002  RH  016%=      5-min Rain = 0
KVA1 281821Z 24010KT 28/00 A3007 RMK A01 T02830001  RH  016%=      5-min Rain = 0
KVA1 281822Z 26009KT 28/01 A3007 RMK A01 T02810006  RH  017%=      5-min Rain = 0
KVA1 281823Z 25010KT 28/01 A3007 RMK A01 T02800008  RH  017%=      5-min Rain = 0
KVA1 281824Z 23009KT 28/01 A3007 RMK A01 T02840012  RH  017%=      5-min Rain = 0
KVA1 281825Z 23008KT 29/01 A3007 RMK A01 T02860011  RH  017%=      5-min Rain = 0
KVA1 281826Z 28009KT 29/01 A3007 RMK A01 T02900009  RH  016%=      5-min Rain = 0
KVA1 281827Z 27009KT 29/00 A3007 RMK A01 T02900004  RH  016%=      5-min Rain = 0
KVA1 281828Z 27009KT 29/00 A3007 RMK A01 T02880004  RH  016%=      5-min Rain = 0
KVA1 281829Z 27011KT 29/00 A3007 RMK A01 T02870004  RH  016%=      5-min Rain = 0
KVA1 281830Z 28007KT 29/00 A3006 RMK A01 T02890000  RH  015%=      5-min Rain = 0
KVA1 281831Z 26007KT 29/M00 A3006 RMK A01 T02911001  RH  015%=      5-min Rain = 0
KVA1 281832Z 26009KT 29/M00 A3006 RMK A01 T02921002  RH  015%=      5-min Rain = 0
KVA1 281833Z 26011KT 29/00 A3006 RMK A01 T02920003  RH  015%=      5-min Rain = 0
KVA1 281834Z 27009G15KT 29/01 A3006 RMK A01 T02920008  RH  016%=      5-min Rain = 0
KVA1 281835Z 27012KT 29/00 A3006 RMK A01 T02900002  RH  015%=      5-min Rain = 0
KVA1 281836Z 28011KT 29/00 A3006 RMK A01 T02880002  RH  016%=      5-min Rain = 0
KVA1 281837Z 28008KT 29/00 A3006 RMK A01 T02860001  RH  016%=      5-min Rain = 0
KVA1 281838Z 27009KT 29/00 A3006 RMK A01 T02850001  RH  016%=      5-min Rain = 0
KVA1 281839Z 26008KT 29/00 A3006 RMK A01 T028600-0  RH  016%=      5-min Rain = 0
KVA1 281840Z 29012KT 29/00 A3006 RMK A01 T02870003  RH  016%=      5-min Rain = 0
KVA1 281841Z 28011KT 29/00 A3006 RMK A01 T028900-0  RH  015%=      5-min Rain = 0
KVA1 281842Z 28007KT 29/00 A3006 RMK A01 T02890004  RH  016%=      5-min Rain = 0
KVA1 281843Z 26008KT 29/01 A3006 RMK A01 T02910009  RH  016%=      5-min Rain = 0
KVA1 281844Z 27011KT 29/01 A3006 RMK A01 T02900007  RH  016%=      5-min Rain = 0
KVA1 281845Z 29010G16KT 29/01 A3006 RMK A01 T02880007  RH  016%=      5-min Rain = 0
KVA1 281846Z 29010KT 29/01 A3006 RMK A01 T02860007  RH  016%=      5-min Rain = 0
KVA1 281847Z 29008KT 29/M00 A3006 RMK A01 T02881001  RH  015%=      5-min Rain = 0
KVA1 281848Z 28011KT 29/M00 A3006 RMK A01 T02921001  RH  015%=      5-min Rain = 0
KVA1 281849Z 28008KT 29/00 A3006 RMK A01 T02930001  RH  015%=      5-min Rain = 0
KVA1 281850Z 27007KT 29/00 A3006 RMK A01 T02900000  RH  015%=      5-min Rain = 0
KVA1 281851Z 28011KT 29/M01 A3005 RMK A01 T02861010  RH  014%=      5-min Rain = 0
KVA1 281852Z 27011KT 29/M01 A3005 RMK A01 T02861011  RH  014%=      5-min Rain = 0
KVA1 281853Z 26012KT 29/00 A3005 RMK A01 T02880001  RH  016%=      5-min Rain = 0
KVA1 281854Z 26013KT 29/01 A3005 RMK A01 T02880006  RH  016%=      5-min Rain = 0
KVA1 281855Z 26009KT 29/00 A3005 RMK A01 T02870004  RH  016%=      5-min Rain = 0
KVA1 281856Z 25008G13KT 29/00 A3005 RMK A01 T02870004  RH  016%=      5-min Rain = 0
KVA1 281857Z 25012KT 29/M01 A3005 RMK A01 T02881010  RH  014%=      5-min Rain = 0
KVA1 281858Z 25013KT 29/M02 A3005 RMK A01 T02891017  RH  014%=      5-min Rain = 0
KVA1 281859Z 27014KT 29/M01 A3005 RMK A01 T02921012  RH  014%=      5-min Rain = 0
KVA1 281900Z 28011KT 29/M00 A3005 RMK A01 T02921001  RH  015%=      5-min Rain = 0
KVA1 281901Z 29008KT 29/00 A3005 RMK A01 T02900002  RH  015%=      5-min Rain = 0
KVA1 281902Z 28006KT 29/M00 A3005 RMK A01 T02881004  RH  015%=      5-min Rain = 0
KVA1 281903Z 26010G15KT 29/M01 A3005 RMK A01 T02861009  RH  015%=      5-min Rain = 0
KVA1 281904Z 28008G14KT 29/M01 A3005 RMK A01 T02881010  RH  014%=      5-min Rain = 0
KVA1 281905Z 28011KT 29/M01 A3005 RMK A01 T02901009  RH  014%=      5-min Rain = 0
KVA1 281906Z 28010KT 29/M01 A3005 RMK A01 T02881007  RH  015%=      5-min Rain = 0
KVA1 281907Z 27009KT 28/M01 A3005 RMK A01 T02841007  RH  015%=      5-min Rain = 0
KVA1 281908Z 27009KT 28/M01 A3005 RMK A01 T02841008  RH  015%=      5-min Rain = 0
KVA1 281909Z 27011KT 29/M01 A3005 RMK A01 T02851007  RH  015%=      5-min Rain = 0
KVA1 281910Z 27008KT 29/M01 A3005 RMK A01 T02861008  RH  015%=      5-min Rain = 0
KVA1 281911Z 28011KT 29/M01 A3004 RMK A01 T02871013  RH  014%=      5-min Rain = 0
KVA1 281912Z 30009KT 29/M01 A3005 RMK A01 T02861013  RH  014%=      5-min Rain = 0
KVA1 281913Z 29010KT 28/M01 A3005 RMK A01 T02841012  RH  014%=      5-min Rain = 0
KVA1 281914Z 28007KT 28/M01 A3005 RMK A01 T02831012  RH  015%=      5-min Rain = 0
KVA1 281915Z 27005KT 28/M01 A3004 RMK A01 T02831007  RH  015%=      5-min Rain = 0
KVA1 281916Z 28008KT 28/M01 A3004 RMK A01 T02841007  RH  015%=      5-min Rain = 0
KVA1 281917Z 29007KT 29/M01 A3004 RMK A01 T02851008  RH  015%=      5-min Rain = 0
KVA1 281918Z 27006KT 28/M01 A3004 RMK A01 T02841011  RH  015%=      5-min Rain = 0
KVA1 281919Z 26005KT 28/M01 A3004 RMK A01 T02811011  RH  015%=      5-min Rain = 0
KVA1 281920Z 26008KT 28/M01 A3004 RMK A01 T02811014  RH  014%=      5-min Rain = 0
KVA1 281921Z 28010G15KT 28/M01 A3004 RMK A01 T02821013  RH  015%=      5-min Rain = 0
KVA1 281922Z 28012KT 29/M01 A3004 RMK A01 T02851014  RH  014%=      5-min Rain = 0
KVA1 281923Z 29009KT 28/M02 A3004 RMK A01 T02841015  RH  014%=      5-min Rain = 0
KVA1 281924Z 29008KT 29/M01 A3004 RMK A01 T02851014  RH  014%=      5-min Rain = 0
KVA1 281925Z 28009KT 29/M01 A3004 RMK A01 T02871012  RH  014%=      5-min Rain = 0
KVA1 281926Z 28007KT 29/M01 A3004 RMK A01 T02881014  RH  014%=      5-min Rain = 0
KVA1 281927Z 27009G14KT 29/M01 A3004 RMK A01 T02901013  RH  014%=      5-min Rain = 0
KVA1 281928Z 27011KT 29/M01 A3004 RMK A01 T02931014  RH  014%=      5-min Rain = 0
KVA1 281929Z 28013KT 30/M02 A3004 RMK A01 T02951016  RH  013%=      5-min Rain = 0
KVA1 281930Z 28013KT 29/M02 A3004 RMK A01 T02941017  RH  013%=      5-min Rain = 0
KVA1 281931Z 27009KT 29/M02 A3004 RMK A01 T02921017  RH  013%=      5-min Rain = 0
KVA1 281932Z 29010KT 29/M02 A3004 RMK A01 T02911017  RH  013%=      5-min Rain = 0
KVA1 281933Z 29008KT 29/M02 A3004 RMK A01 T02901016  RH  014%=      5-min Rain = 0
KVA1 281934Z 29009KT 29/M01 A3004 RMK A01 T02891014  RH  014%=      5-min Rain = 0
KVA1 281935Z 28005KT 29/M01 A3004 RMK A01 T02881013  RH  014%=      5-min Rain = 0
KVA1 281936Z 27007KT 29/M01 A3004 RMK A01 T02851014  RH  014%=      5-min Rain = 0
KVA1 281937Z 27007KT 29/M01 A3004 RMK A01 T02861012  RH  014%=      5-min Rain = 0
KVA1 281938Z 26004KT 29/M01 A3004 RMK A01 T02871010  RH  014%=      5-min Rain = 0
KVA1 281939Z 26006KT 29/M01 A3004 RMK A01 T02871011  RH  014%=      5-min Rain = 0
KVA1 281940Z 26008KT 29/M01 A3004 RMK A01 T02881014  RH  014%=      5-min Rain = 0
KVA1 281941Z 27009KT 29/M02 A3004 RMK A01 T02891015  RH  014%=      5-min Rain = 0
KVA1 281942Z 27008KT 29/M01 A3004 RMK A01 T02911013  RH  014%=      5-min Rain = 0
KVA1 281943Z 25007KT 29/M01 A3003 RMK A01 T02911008  RH  014%=      5-min Rain = 0
KVA1 281944Z 23007KT 29/M01 A3003 RMK A01 T02921009  RH  014%=      5-min Rain = 0
KVA1 281945Z 22009KT 29/M01 A3003 RMK A01 T02931010  RH  014%=      5-min Rain = 0
KVA1 281946Z 26006KT 30/M01 A3003 RMK A01 T02951010  RH  014%=      5-min Rain = 0
KVA1 281947Z 23006KT 29/M02 A3003 RMK A01 T02941015  RH  013%=      5-min Rain = 0
KVA1 281948Z 24007KT 29/M01 A3003 RMK A01 T02931013  RH  014%=      5-min Rain = 0
KVA1 281949Z 25009KT 30/M01 A3003 RMK A01 T02951012  RH  014%=      5-min Rain = 0
KVA1 281950Z 26008KT 30/M01 A3003 RMK A01 T02971014  RH  013%=      5-min Rain = 0
KVA1 281951Z 24007KT 30/M02 A3003 RMK A01 T02971015  RH  013%=      5-min Rain = 0
KVA1 281952Z 25004KT 29/M01 A3003 RMK A01 T02941013  RH  014%=      5-min Rain = 0
KVA1 281953Z 28005KT 29/M01 A3003 RMK A01 T02941011  RH  014%=      5-min Rain = 0
KVA1 281954Z 27004KT 30/M01 A3003 RMK A01 T02971012  RH  013%=      5-min Rain = 0
KVA1 281955Z 27003KT 30/M01 A3003 RMK A01 T02991010  RH  013%=      5-min Rain = 0
KVA1 281956Z 23003KT 30/M01 A3003 RMK A01 T03001012  RH  013%=      5-min Rain = 0
KVA1 281957Z 24007KT 30/M02 A3003 RMK A01 T03001015  RH  013%=      5-min Rain = 0
KVA1 281958Z 27009KT 30/M01 A3003 RMK A01 T03021012  RH  013%=      5-min Rain = 0
KVA1 281959Z 28008KT 30/M01 A3003 RMK A01 T03041010  RH  013%=      5-min Rain = 0
KVA1 282000Z 29009KT 30/M01 A3003 RMK A01 T03021008  RH  013%=      5-min Rain = 0
KVA1 282001Z 30008KT 30/M01 A3003 RMK A01 T03011009  RH  013%=      5-min Rain = 0
KVA1 282002Z 29010KT 30/M01 A3003 RMK A01 T02961010  RH  014%=      5-min Rain = 0
KVA1 282003Z 30008KT 29/M01 A3003 RMK A01 T02931013  RH  014%=      5-min Rain = 0
KVA1 282004Z 30009KT 29/M02 A3003 RMK A01 T02901016  RH  014%=      5-min Rain = 0
KVA1 282005Z 29010KT 29/M01 A3003 RMK A01 T02911012  RH  014%=      5-min Rain = 0
KVA1 282006Z 30007KT 29/M01 A3003 RMK A01 T02901012  RH  014%=      5-min Rain = 0
KVA1 282007Z 29007KT 29/M01 A3003 RMK A01 T02921009  RH  014%=      5-min Rain = 0
KVA1 282008Z 26010KT 29/M01 A3003 RMK A01 T02941012  RH  014%=      5-min Rain = 0
KVA1 282009Z 27007KT 30/M02 A3003 RMK A01 T02961015  RH  013%=      5-min Rain = 0
KVA1 282010Z 29007KT 30/M02 A3003 RMK A01 T02981019  RH  013%=      5-min Rain = 0
KVA1 282011Z 31010KT 30/M02 A3003 RMK A01 T02961018  RH  013%=      5-min Rain = 0
KVA1 282012Z 28010KT 30/M02 A3003 RMK A01 T02951017  RH  013%=      5-min Rain = 0
KVA1 282013Z 29007KT 29/M02 A3003 RMK A01 T02931016  RH  013%=      5-min Rain = 0
KVA1 282014Z 32009KT 29/M01 A3003 RMK A01 T02941012  RH  014%=      5-min Rain = 0
KVA1 282015Z 30011KT 30/M01 A3003 RMK A01 T02971012  RH  013%=      5-min Rain = 0
KVA1 282016Z 31009KT 30/M01 A3003 RMK A01 T02961013  RH  013%=      5-min Rain = 0
KVA1 282017Z 31010KT 30/M01 A3002 RMK A01 T02981010  RH  014%=      5-min Rain = 0
KVA1 282018Z 32009KT 30/M01 A3002 RMK A01 T02981011  RH  013%=      5-min Rain = 0
KVA1 282019Z 32011KT 30/M01 A3003 RMK A01 T02971012  RH  013%=      5-min Rain = 0
KVA1 282020Z 33006KT 29/M02 A3003 RMK A01 T02941017  RH  013%=      5-min Rain = 0
KVA1 282021Z 32008KT 29/M02 A3002 RMK A01 T02931015  RH  013%=      5-min Rain = 0
KVA1 282022Z 32010KT 29/M01 A3002 RMK A01 T02931009  RH  014%=      5-min Rain = 0
KVA1 282023Z 32008KT 29/M01 A3003 RMK A01 T02931006  RH  014%=      5-min Rain = 0
KVA1 282024Z 32008KT 29/M01 A3002 RMK A01 T02941006  RH  014%=      5-min Rain = 0
KVA1 282025Z 32006KT 30/M00 A3002 RMK A01 T02951004  RH  014%=      5-min Rain = 0
KVA1 282026Z 31005KT 30/M01 A3002 RMK A01 T02961005  RH  014%=      5-min Rain = 0
KVA1 282027Z 28009KT 30/M00 A3002 RMK A01 T02981003  RH  014%=      5-min Rain = 0
KVA1 282028Z 30006KT 30/M01 A3003 RMK A01 T03001005  RH  014%=      5-min Rain = 0
KVA1 282029Z 33003KT 30/M01 A3002 RMK A01 T02991006  RH  014%=      5-min Rain = 0
KVA1 282030Z 27006KT 30/M01 A3002 RMK A01 T02981010  RH  014%=      5-min Rain = 0
KVA1 282031Z 25009KT 30/M01 A3002 RMK A01 T02971012  RH  013%=      5-min Rain = 0
KVA1 282032Z 26009KT 30/M02 A3002 RMK A01 T02981016  RH  013%=      5-min Rain = 0
KVA1 282033Z 29009KT 30/M02 A3002 RMK A01 T02991017  RH  013%=      5-min Rain = 0
KVA1 282034Z 28007KT 30/M03 A3002 RMK A01 T02971026  RH  012%=      5-min Rain = 0
KVA1 282035Z 29008KT 30/M02 A3002 RMK A01 T02951024  RH  012%=      5-min Rain = 0
KVA1 282036Z 30005G10KT 29/M03 A3002 RMK A01 T02931026  RH  012%=      5-min Rain = 0
KVA1 282037Z 31007KT 29/M02 A3002 RMK A01 T02941021  RH  013%=      5-min Rain = 0
KVA1 282038Z 31008KT 30/M02 A3002 RMK A01 T02971022  RH  012%=      5-min Rain = 0
KVA1 282039Z 32010KT 30/M02 A3002 RMK A01 T02981019  RH  013%=      5-min Rain = 0
KVA1 282040Z 33011KT 30/M02 A3002 RMK A01 T02981016  RH  013%=      5-min Rain = 0
KVA1 282041Z 31008KT 30/M02 A3002 RMK A01 T02981017  RH  013%=      5-min Rain = 0
KVA1 282042Z 33005KT 30/M02 A3002 RMK A01 T02961017  RH  013%=      5-min Rain = 0
KVA1 282043Z 34005KT 29/M02 A3002 RMK A01 T02941019  RH  013%=      5-min Rain = 0
KVA1 282044Z 33007KT 29/M02 A3002 RMK A01 T02931016  RH  013%=      5-min Rain = 0
KVA1 282045Z 28009KT 30/M02 A3002 RMK A01 T02961018  RH  013%=      5-min Rain = 0
KVA1 282046Z 28010KT 30/M02 A3002 RMK A01 T02971020  RH  013%=      5-min Rain = 0
KVA1 282047Z 27011KT 30/M02 A3002 RMK A01 T02991020  RH  013%=      5-min Rain = 0
KVA1 282048Z 27011KT 30/M02 A3002 RMK A01 T03011024  RH  012%=      5-min Rain = 0
KVA1 282049Z 28009KT 30/M02 A3002 RMK A01 T02991021  RH  012%=      5-min Rain = 0
KVA1 282050Z 30007KT 30/M02 A3002 RMK A01 T02961021  RH  013%=      5-min Rain = 0
KVA1 282051Z 31006KT 30/M02 A3002 RMK A01 T02961018  RH  013%=      5-min Rain = 0
KVA1 282052Z 30011KT 30/M02 A3002 RMK A01 T02971019  RH  013%=      5-min Rain = 0
KVA1 282053Z 31011KT 30/M02 A3002 RMK A01 T03001019  RH  013%=      5-min Rain = 0
KVA1 282054Z 32009KT 30/M02 A3002 RMK A01 T03001018  RH  013%=      5-min Rain = 0
KVA1 282055Z 32008KT 30/M01 A3002 RMK A01 T02981014  RH  013%=      5-min Rain = 0
KVA1 282056Z 29007KT 30/M01 A3002 RMK A01 T02961010  RH  014%=      5-min Rain = 0
KVA1 282057Z 28005KT 30/M02 A3002 RMK A01 T02951016  RH  013%=      5-min Rain = 0
KVA1 282058Z 27006G11KT 29/M02 A3002 RMK A01 T02931015  RH  013%=      5-min Rain = 0
KVA1 282059Z 26010KT 30/M02 A3002 RMK A01 T02951021  RH  013%=      5-min Rain = 0
KVA1 282100Z 26007KT 30/M02 A3002 RMK A01 T02961023  RH  012%=      5-min Rain = 0
KVA1 282101Z 26004G9KT 30/M03 A3001 RMK A01 T02971026  RH  012%=      5-min Rain = 0
KVA1 282102Z 25008KT 30/M03 A3001 RMK A01 T02961025  RH  012%=      5-min Rain = 0
KVA1 282103Z 27008KT 30/M03 A3001 RMK A01 T02961025  RH  012%=      5-min Rain = 0
KVA1 282104Z 27014KT 30/M02 A3001 RMK A01 T02971024  RH  012%=      5-min Rain = 0
KVA1 282105Z 26012KT 30/M03 A3001 RMK A01 T02981025  RH  012%=      5-min Rain = 0
KVA1 282106Z 26008KT 30/M03 A3001 RMK A01 T02971025  RH  012%=      5-min Rain = 0
KVA1 282107Z 28011G17KT 30/M02 A3001 RMK A01 T02981023  RH  012%=      5-min Rain = 0
KVA1 282108Z 27008KT 30/M02 A3001 RMK A01 T02991022  RH  012%=      5-min Rain = 0
KVA1 282109Z 27011KT 30/M02 A3001 RMK A01 T02991021  RH  012%=      5-min Rain = 0
KVA1 282110Z 28010KT 30/M02 A3001 RMK A01 T03001017  RH  013%=      5-min Rain = 0
KVA1 282111Z 28007KT 30/M02 A3002 RMK A01 T02991015  RH  013%=      5-min Rain = 0
KVA1 282112Z 27006KT 30/M02 A3001 RMK A01 T03021016  RH  013%=      5-min Rain = 0
KVA1 282113Z 28007KT 30/M02 A3001 RMK A01 T03031017  RH  013%=      5-min Rain = 0
KVA1 282114Z 26010KT 31/M02 A3001 RMK A01 T03051017  RH  012%=      5-min Rain = 0
KVA1 282115Z 24009KT 30/M02 A3001 RMK A01 T03031022  RH  012%=      5-min Rain = 0
KVA1 282116Z 29009KT 30/M02 A3001 RMK A01 T03021021  RH  012%=      5-min Rain = 0
KVA1 282117Z 26008KT 30/M02 A3001 RMK A01 T03021022  RH  012%=      5-min Rain = 0
KVA1 282118Z 24009KT 30/M02 A3001 RMK A01 T03021021  RH  012%=      5-min Rain = 0
KVA1 282119Z 22008KT 30/M02 A3001 RMK A01 T03021024  RH  012%=      5-min Rain = 0
KVA1 282120Z 21006KT 30/M03 A3001 RMK A01 T02991025  RH  012%=      5-min Rain = 0
KVA1 282121Z 23007G12KT 29/M03 A3001 RMK A01 T02941025  RH  012%=      5-min Rain = 0
KVA1 282122Z 26010KT 30/M03 A3001 RMK A01 T02951025  RH  012%=      5-min Rain = 0
KVA1 282123Z 27008KT 30/M02 A3001 RMK A01 T02991024  RH  012%=      5-min Rain = 0
KVA1 282124Z 27006KT 30/M03 A3001 RMK A01 T03001030  RH  011%=      5-min Rain = 0
KVA1 282125Z 27006KT 30/M03 A3001 RMK A01 T02971029  RH  012%=      5-min Rain = 0
KVA1 282126Z 31005KT 30/M03 A3001 RMK A01 T02951026  RH  012%=      5-min Rain = 0
KVA1 282127Z 32004KT 29/M03 A3001 RMK A01 T02921027  RH  012%=      5-min Rain = 0
KVA1 282128Z 29006KT 29/M02 A3001 RMK A01 T02891024  RH  013%=      5-min Rain = 0
KVA1 282129Z 29011KT 29/M01 A3001 RMK A01 T02941013  RH  014%=      5-min Rain = 0
KVA1 282130Z 29008KT 30/M02 A3001 RMK A01 T02971017  RH  013%=      5-min Rain = 0
KVA1 282131Z 28009KT 30/M02 A3001 RMK A01 T02981019  RH  013%=      5-min Rain = 0
KVA1 282132Z 27006KT 30/M02 A3001 RMK A01 T02981021  RH  013%=      5-min Rain = 0
KVA1 282133Z 26008KT 30/M02 A3001 RMK A01 T02981018  RH  013%=      5-min Rain = 0
KVA1 282134Z 27009KT 30/M02 A30 RMK A01 T03001019  RH  013%=      5-min Rain = 0
KVA1 282135Z 29010KT 30/M02 A30 RMK A01 T03001019  RH  013%=      5-min Rain = 0
KVA1 282136Z 31008KT 30/M02 A30 RMK A01 T03011019  RH  012%=      5-min Rain = 0
KVA1 282137Z 31012KT 30/M02 A30 RMK A01 T03011018  RH  013%=      5-min Rain = 0
KVA1 282138Z 31013KT 30/M02 A30 RMK A01 T03001018  RH  013%=      5-min Rain = 0
KVA1 282139Z 31009KT 30/M02 A30 RMK A01 T03001015  RH  013%=      5-min Rain = 0
KVA1 282140Z 31010KT 30/M02 A30 RMK A01 T03011015  RH  013%=      5-min Rain = 0
KVA1 282141Z 29009KT 30/M02 A30 RMK A01 T03011015  RH  013%=      5-min Rain = 0
KVA1 282142Z 28007KT 30/M01 A30 RMK A01 T03001014  RH  013%=      5-min Rain = 0
KVA1 282143Z 28009KT 30/M02 A30 RMK A01 T02991024  RH  012%=      5-min Rain = 0
KVA1 282144Z 26009KT 30/M03 A30 RMK A01 T02991034  RH  011%=      5-min Rain = 0
KVA1 282145Z 26008KT 30/M04 A30 RMK A01 T02961037  RH  011%=      5-min Rain = 0
KVA1 282146Z 28007KT 30/M04 A30 RMK A01 T02971035  RH  011%=      5-min Rain = 0
KVA1 282147Z 28008KT 30/M04 A30 RMK A01 T02971035  RH  011%=      5-min Rain = 0
KVA1 282148Z 29008KT 30/M03 A30 RMK A01 T03011031  RH  011%=      5-min Rain = 0
KVA1 282149Z 29009KT 30/M03 A30 RMK A01 T03041032  RH  011%=      5-min Rain = 0
KVA1 282150Z 29009KT 30/M03 A30 RMK A01 T03041032  RH  011%=      5-min Rain = 0
KVA1 282151Z 29010KT 30/M03 A30 RMK A01 T03021033  RH  011%=      5-min Rain = 0
KVA1 282152Z 26012KT 30/M03 A30 RMK A01 T03021031  RH  011%=      5-min Rain = 0
KVA1 282153Z 25009KT 30/M03 A30 RMK A01 T03011032  RH  011%=      5-min Rain = 0
KVA1 282154Z 25008KT 30/M03 A30 RMK A01 T03001030  RH  012%=      5-min Rain = 0
KVA1 282155Z 27007KT 30/M03 A30 RMK A01 T02991029  RH  012%=      5-min Rain = 0
KVA1 282156Z 29006KT 30/M03 A30 RMK A01 T03031026  RH  012%=      5-min Rain = 0
KVA1 282157Z 28012KT 31/M03 A30 RMK A01 T03051027  RH  011%=      5-min Rain = 0
KVA1 282158Z 29011KT 30/M03 A30 RMK A01 T03041028  RH  011%=      5-min Rain = 0
KVA1 282159Z 31011KT 30/M03 A30 RMK A01 T03041026  RH  012%=      5-min Rain = 0
KVA1 282200Z 31011KT 30/M03 A30 RMK A01 T03031025  RH  012%=      5-min Rain = 0
KVA1 282201Z 32009KT 30/M03 A30 RMK A01 T03011026  RH  012%=      5-min Rain = 0
KVA1 282202Z 33010KT 30/M02 A30 RMK A01 T03011024  RH  012%=      5-min Rain = 0
KVA1 282203Z 34009KT 30/M03 A30 RMK A01 T03011025  RH  012%=      5-min Rain = 0
KVA1 282204Z 32007KT 30/M03 A30 RMK A01 T02991028  RH  012%=      5-min Rain = 0
KVA1 282205Z 34007KT 30/M03 A30 RMK A01 T02981029  RH  012%=      5-min Rain = 0
KVA1 282206Z 34009KT 30/M03 A30 RMK A01 T02981030  RH  012%=      5-min Rain = 0
KVA1 282207Z 35007KT 30/M03 A30 RMK A01 T02981031  RH  012%=      5-min Rain = 0
KVA1 282208Z 01005KT 30/M03 A30 RMK A01 T02981030  RH  012%=      5-min Rain = 0
KVA1 282209Z 35005KT 30/M03 A30 RMK A01 T02981031  RH  012%=      5-min Rain = 0
KVA1 282210Z 33006KT 30/M03 A30 RMK A01 T02981030  RH  012%=      5-min Rain = 0
KVA1 282211Z 31009KT 30/M03 A30 RMK A01 T02981031  RH  012%=      5-min Rain = 0
KVA1 282212Z 32006KT 30/M03 A30 RMK A01 T02961033  RH  012%=      5-min Rain = 0
KVA1 282213Z 00008KT 29/M03 A30 RMK A01 T02941032  RH  012%=      5-min Rain = 0
KVA1 282214Z 02006KT 30/M03 A30 RMK A01 T02971030  RH  012%=      5-min Rain = 0
KVA1 282215Z 35005KT 30/M03 A30 RMK A01 T02981031  RH  012%=      5-min Rain = 0
KVA1 282216Z 29008KT 30/M03 A30 RMK A01 T02991030  RH  012%=      5-min Rain = 0
KVA1 282217Z 31007KT 30/M03 A30 RMK A01 T02981029  RH  012%=      5-min Rain = 0
KVA1 282218Z 32009KT 30/M03 A30 RMK A01 T02991029  RH  012%=      5-min Rain = 0
KVA1 282219Z 31009KT 30/M03 A30 RMK A01 T02981028  RH  012%=      5-min Rain = 0
KVA1 282220Z 28011KT 30/M03 A30 RMK A01 T03001025  RH  012%=      5-min Rain = 0
KVA1 282221Z 28008KT 30/M03 A30 RMK A01 T03011025  RH  012%=      5-min Rain = 0
KVA1 282222Z 29006KT 30/M03 A30 RMK A01 T02981027  RH  012%=      5-min Rain = 0
KVA1 282223Z 30006KT 30/M03 A2999 RMK A01 T02961026  RH  012%=      5-min Rain = 0
KVA1 282224Z 29010G17KT 30/M03 A2999 RMK A01 T02971026  RH  012%=      5-min Rain = 0
KVA1 282225Z 27010G15KT 30/M03 A2999 RMK A01 T02991027  RH  012%=      5-min Rain = 0
KVA1 282226Z 27013KT 30/M03 A2999 RMK A01 T03011025  RH  012%=      5-min Rain = 0
KVA1 282227Z 26013KT 30/M03 A2999 RMK A01 T03001027  RH  012%=      5-min Rain = 0
KVA1 282228Z 26011KT 30/M03 A2999 RMK A01 T02981028  RH  012%=      5-min Rain = 0
KVA1 282229Z 24007KT 30/M03 A2999 RMK A01 T02981029  RH  012%=      5-min Rain = 0
KVA1 282230Z 28007G14KT 30/M03 A2999 RMK A01 T02971029  RH  012%=      5-min Rain = 0
KVA1 282231Z 31009KT 30/M03 A30 RMK A01 T02961029  RH  012%=      5-min Rain = 0
KVA1 282232Z 31005KT 30/M03 A2999 RMK A01 T02951029  RH  012%=      5-min Rain = 0
KVA1 282233Z 29006KT 29/M03 A2999 RMK A01 T02941028  RH  012%=      5-min Rain = 0
KVA1 282234Z 29005KT 30/M03 A2999 RMK A01 T02961028  RH  012%=      5-min Rain = 0
KVA1 282235Z 28007KT 30/M03 A2999 RMK A01 T02971031  RH  012%=      5-min Rain = 0
KVA1 282236Z 27005KT 30/M03 A2999 RMK A01 T02971032  RH  012%=      5-min Rain = 0
KVA1 282237Z 25007KT 30/M03 A2999 RMK A01 T02971032  RH  012%=      5-min Rain = 0
KVA1 282238Z 25007KT 30/M03 A2999 RMK A01 T02981026  RH  012%=      5-min Rain = 0
KVA1 282239Z 26008KT 30/M02 A2999 RMK A01 T03011020  RH  012%=      5-min Rain = 0
KVA1 282240Z 26009KT 30/M02 A2999 RMK A01 T03031022  RH  012%=      5-min Rain = 0
KVA1 282241Z 26009KT 30/M02 A2999 RMK A01 T03011019  RH  012%=      5-min Rain = 0
KVA1 282242Z 26006KT 30/M02 A2999 RMK A01 T02991018  RH  013%=      5-min Rain = 0
KVA1 282243Z 27007KT 30/M02 A2999 RMK A01 T03001018  RH  013%=      5-min Rain = 0
KVA1 282244Z 29010KT 30/M03 A2999 RMK A01 T03021032  RH  011%=      5-min Rain = 0
KVA1 282245Z 30008KT 30/M04 A2999 RMK A01 T02981040  RH  011%=      5-min Rain = 0
KVA1 282246Z 29005KT 30/M04 A2999 RMK A01 T02961038  RH  011%=      5-min Rain = 0
KVA1 282247Z 29006KT 30/M04 A2999 RMK A01 T02991036  RH  011%=      5-min Rain = 0
KVA1 282248Z 25006KT 30/M03 A2999 RMK A01 T03011033  RH  011%=      5-min Rain = 0
KVA1 282249Z 27006KT 30/M03 A2999 RMK A01 T03021030  RH  011%=      5-min Rain = 0
KVA1 282250Z 25011KT 30/M03 A2999 RMK A01 T03041031  RH  011%=      5-min Rain = 0
KVA1 282251Z 26012KT 30/M03 A2999 RMK A01 T03021032  RH  011%=      5-min Rain = 0
KVA1 282252Z 27012KT 30/M03 A2999 RMK A01 T02991033  RH  011%=      5-min Rain = 0
KVA1 282253Z 29012KT 30/M03 A2999 RMK A01 T02991033  RH  011%=      5-min Rain = 0
KVA1 282254Z 26012KT 30/M03 A2999 RMK A01 T02991033  RH  011%=      5-min Rain = 0
KVA1 282255Z 26011KT 30/M03 A30 RMK A01 T02971033  RH  011%=      5-min Rain = 0
KVA1 282256Z 25011KT 30/M03 A2999 RMK A01 T02971033  RH  011%=      5-min Rain = 0
KVA1 282257Z 26011KT 30/M03 A30 RMK A01 T02971033  RH  012%=      5-min Rain = 0
KVA1 282258Z 27007KT 30/M04 A2999 RMK A01 T02961035  RH  011%=      5-min Rain = 0
KVA1 282259Z 27006KT 30/M04 A2999 RMK A01 T02951035  RH  011%=      5-min Rain = 0
KVA1 282300Z 28010KT 30/M03 A2999 RMK A01 T02961033  RH  012%=      5-min Rain = 0
KVA1 282301Z 27010KT 30/M03 A2999 RMK A01 T02971033  RH  011%=      5-min Rain = 0
KVA1 282302Z 27008G13KT 30/M03 A2999 RMK A01 T02971034  RH  011%=      5-min Rain = 0
KVA1 282303Z 27011KT 30/M03 A2999 RMK A01 T02981034  RH  011%=      5-min Rain = 0
KVA1 282304Z 26009KT 30/M03 A2999 RMK A01 T02981034  RH  011%=      5-min Rain = 0
KVA1 282305Z 26009KT 30/M04 A2999 RMK A01 T02981035  RH  011%=      5-min Rain = 0
KVA1 282306Z 25008KT 30/M03 A2999 RMK A01 T02981034  RH  011%=      5-min Rain = 0
KVA1 282307Z 27010KT 30/M03 A2999 RMK A01 T02991034  RH  011%=      5-min Rain = 0
KVA1 282308Z 27009KT 30/M04 A2999 RMK A01 T03001035  RH  011%=      5-min Rain = 0
KVA1 282309Z 26007KT 30/M04 A2999 RMK A01 T02991035  RH  011%=      5-min Rain = 0
KVA1 282310Z 25007KT 30/M04 A2999 RMK A01 T02991036  RH  011%=      5-min Rain = 0
KVA1 282311Z 27007KT 30/M03 A2999 RMK A01 T03011034  RH  011%=      5-min Rain = 0
KVA1 282312Z 30009KT 30/M04 A2999 RMK A01 T03021036  RH  011%=      5-min Rain = 0
KVA1 282313Z 28008KT 30/M04 A30 RMK A01 T03011036  RH  011%=      5-min Rain = 0
KVA1 282314Z 28008KT 30/M04 A30 RMK A01 T03011036  RH  011%=      5-min Rain = 0
KVA1 282315Z 26011KT 30/M04 A30 RMK A01 T03011037  RH  011%=      5-min Rain = 0
KVA1 282316Z 26012G17KT 30/M04 A30 RMK A01 T02991040  RH  011%=      5-min Rain = 0
KVA1 282317Z 27011KT 30/M04 A30 RMK A01 T02971041  RH  011%=      5-min Rain = 0
KVA1 282318Z 29012KT 30/M04 A30 RMK A01 T02971042  RH  011%=      5-min Rain = 0
KVA1 282319Z 28011KT 30/M04 A30 RMK A01 T02961042  RH  011%=      5-min Rain = 0
KVA1 282320Z 26010KT 30/M04 A30 RMK A01 T02961041  RH  011%=      5-min Rain = 0
KVA1 282321Z 25008KT 29/M04 A30 RMK A01 T02941042  RH  011%=      5-min Rain = 0
KVA1 282322Z 26007KT 30/M04 A30 RMK A01 T02951040  RH  011%=      5-min Rain = 0
KVA1 282323Z 27008G13KT 30/M04 A30 RMK A01 T02951039  RH  011%=      5-min Rain = 0
KVA1 282324Z 28011KT 30/M04 A30 RMK A01 T02961039  RH  011%=      5-min Rain = 0
KVA1 282325Z 26007KT 30/M04 A2999 RMK A01 T02951040  RH  011%=      5-min Rain = 0
KVA1 282326Z 24009KT 30/M04 A2999 RMK A01 T02951040  RH  011%=      5-min Rain = 0
KVA1 282327Z 24007KT 30/M04 A2999 RMK A01 T02951040  RH  011%=      5-min Rain = 0
KVA1 282328Z 24007KT 30/M04 A2999 RMK A01 T02961039  RH  011%=      5-min Rain = 0
KVA1 282329Z 24005KT 30/M04 A2999 RMK A01 T02971038  RH  011%=      5-min Rain = 0
KVA1 282330Z 28005KT 30/M04 A2999 RMK A01 T02971038  RH  011%=      5-min Rain = 0
KVA1 282331Z 24005KT 30/M04 A2999 RMK A01 T02991037  RH  011%=      5-min Rain = 0
KVA1 282332Z 25007KT 30/M04 A2999 RMK A01 T02991036  RH  011%=      5-min Rain = 0
KVA1 282333Z 26008KT 30/M04 A2999 RMK A01 T03001037  RH  011%=      5-min Rain = 0
KVA1 282334Z 27009KT 30/M04 A2999 RMK A01 T02971041  RH  011%=      5-min Rain = 0
KVA1 282335Z 28012G17KT 30/M04 A2999 RMK A01 T02971043  RH  011%=      5-min Rain = 0
KVA1 282336Z 29011KT 30/M05 A2999 RMK A01 T02971045  RH  011%=      5-min Rain = 0
KVA1 282337Z 30010KT 30/M05 A2999 RMK A01 T02951046  RH  011%=      5-min Rain = 0
KVA1 282338Z 29010KT 29/M05 A2999 RMK A01 T02941047  RH  011%=      5-min Rain = 0
KVA1 282339Z 27009KT 29/M05 A2999 RMK A01 T02941045  RH  011%=      5-min Rain = 0
KVA1 282340Z 27012KT 29/M05 A2999 RMK A01 T02931046  RH  011%=      5-min Rain = 0
KVA1 282341Z 29010KT 29/M05 A2999 RMK A01 T02931046  RH  011%=      5-min Rain = 0
KVA1 282342Z 29011KT 29/M05 A2999 RMK A01 T02931046  RH  011%=      5-min Rain = 0
KVA1 282343Z 30007KT 29/M05 A2999 RMK A01 T02931046  RH  011%=      5-min Rain = 0
KVA1 282344Z 29006KT 29/M04 A2999 RMK A01 T02941044  RH  011%=      5-min Rain = 0
KVA1 282345Z 28008KT 29/M05 A2999 RMK A01 T02941045  RH  011%=      5-min Rain = 0
KVA1 282346Z 25008KT 29/M05 A2999 RMK A01 T02941046  RH  011%=      5-min Rain = 0
KVA1 282347Z 25007KT 29/M05 A2999 RMK A01 T02931046  RH  011%=      5-min Rain = 0
KVA1 282348Z 25007KT 29/M05 A2999 RMK A01 T02931045  RH  011%=      5-min Rain = 0
KVA1 282349Z 25007KT 30/M04 A2999 RMK A01 T02951044  RH  011%=      5-min Rain = 0
KVA1 282350Z 26010KT 30/M05 A2999 RMK A01 T02961045  RH  011%=      5-min Rain = 0
KVA1 282351Z 25010KT 30/M05 A2999 RMK A01 T02961045  RH  011%=      5-min Rain = 0
KVA1 282352Z 26010KT 30/M05 A2999 RMK A01 T02961045  RH  011%=      5-min Rain = 0
KVA1 282353Z 27010KT 30/M05 A2999 RMK A01 T02961045  RH  011%=      5-min Rain = 0
KVA1 282354Z 27007KT 30/M05 A2999 RMK A01 T02951046  RH  011%=      5-min Rain = 0
KVA1 282355Z 26007KT 29/M05 A2999 RMK A01 T02941046  RH  011%=      5-min Rain = 0
KVA1 282356Z 28008KT 29/M05 A2999 RMK A01 T02941045  RH  011%=      5-min Rain = 0
KVA1 282357Z 28008KT 29/M05 A2999 RMK A01 T02941046  RH  011%=      5-min Rain = 0
KVA1 282358Z 28008KT 29/M05 A2999 RMK A01 T02931046  RH  011%=      5-min Rain = 0
KVA1 282359Z 28010KT 29/M05 A2999 RMK A01 T02931046  RH  011%=      5-min Rain = 0
KVA1 290000Z 28009KT 29/M05 A2999 RMK A01 T02931045  RH  011%=      5-min Rain = 0
KVA1 290001Z 28009KT 29/M05 A2999 RMK A01 T02921047  RH  011%=      5-min Rain = 0
KVA1 290002Z 29008KT 29/M05 A2999 RMK A01 T02911047  RH  011%=      5-min Rain = 0
KVA1 290003Z 29007KT 29/M05 A2999 RMK A01 T02911047  RH  011%=      5-min Rain = 0
KVA1 290004Z 27009KT 29/M05 A2999 RMK A01 T02911046  RH  011%=      5-min Rain = 0
KVA1 290005Z 27010KT 29/M05 A2999 RMK A01 T02911049  RH  011%=      5-min Rain = 0
KVA1 290006Z 27009KT 29/M05 A2999 RMK A01 T02901051  RH  010%=      5-min Rain = 0
KVA1 290007Z 27009KT 29/M05 A2999 RMK A01 T02901052  RH  010%=      5-min Rain = 0
KVA1 290008Z 27009KT 29/M05 A2999 RMK A01 T02901052  RH  010%=      5-min Rain = 0
KVA1 290009Z 27007KT 29/M05 A2999 RMK A01 T02891054  RH  010%=      5-min Rain = 0
KVA1 290010Z 27007KT 29/M06 A2999 RMK A01 T02901055  RH  010%=      5-min Rain = 0
KVA1 290011Z 25005KT 29/M05 A2999 RMK A01 T02901054  RH  010%=      5-min Rain = 0
KVA1 290012Z 25009KT 29/M05 A2999 RMK A01 T02901052  RH  010%=      5-min Rain = 0
KVA1 290013Z 25008KT 29/M05 A2999 RMK A01 T02901051  RH  010%=      5-min Rain = 0
KVA1 290014Z 26007KT 29/M05 A2999 RMK A01 T02901050  RH  011%=      5-min Rain = 0
KVA1 290015Z 28008KT 29/M05 A2999 RMK A01 T02911050  RH  011%=      5-min Rain = 0
KVA1 290016Z 30009KT 29/M05 A2999 RMK A01 T02911051  RH  010%=      5-min Rain = 0
KVA1 290017Z 29010KT 29/M05 A2999 RMK A01 T02901052  RH  010%=      5-min Rain = 0
KVA1 290018Z 28008KT 29/M05 A2999 RMK A01 T02901052  RH  010%=      5-min Rain = 0
KVA1 290019Z 29009KT 29/M05 A2999 RMK A01 T02901052  RH  010%=      5-min Rain = 0
KVA1 290020Z 29008KT 29/M05 A2999 RMK A01 T02901053  RH  010%=      5-min Rain = 0
KVA1 290021Z 30010KT 29/M05 A2999 RMK A01 T02891053  RH  010%=      5-min Rain = 0
KVA1 290022Z 31010KT 29/M05 A2999 RMK A01 T02891054  RH  010%=      5-min Rain = 0
KVA1 290023Z 31008KT 29/M06 A2999 RMK A01 T02871057  RH  010%=      5-min Rain = 0
KVA1 290024Z 29008KT 29/M06 A2999 RMK A01 T02871057  RH  010%=      5-min Rain = 0
KVA1 290025Z 28009KT 29/M06 A2999 RMK A01 T02861058  RH  010%=      5-min Rain = 0
KVA1 290026Z 27008KT 29/M06 A2999 RMK A01 T02861058  RH  010%=      5-min Rain = 0
KVA1 290027Z 27009KT 29/M06 A2999 RMK A01 T02851059  RH  010%=      5-min Rain = 0
KVA1 290028Z 27010KT 29/M06 A2999 RMK A01 T02851059  RH  010%=      5-min Rain = 0
KVA1 290029Z 27008KT 29/M06 A2999 RMK A01 T02861060  RH  010%=      5-min Rain = 0
KVA1 290030Z 27008KT 29/M06 A2999 RMK A01 T02861059  RH  010%=      5-min Rain = 0
KVA1 290031Z 28008KT 29/M06 A2999 RMK A01 T02851060  RH  010%=      5-min Rain = 0
KVA1 290032Z 28008KT 29/M06 A2999 RMK A01 T02851059  RH  010%=      5-min Rain = 0
KVA1 290033Z 29010KT 28/M06 A2999 RMK A01 T02841060  RH  010%=      5-min Rain = 0
KVA1 290034Z 28008KT 28/M06 A2999 RMK A01 T02841061  RH  010%=      5-min Rain = 0
KVA1 290035Z 28006KT 28/M06 A2999 RMK A01 T02831060  RH  010%=      5-min Rain = 0
KVA1 290036Z 28008KT 28/M06 A2999 RMK A01 T02841060  RH  010%=      5-min Rain = 0
KVA1 290037Z 28009KT 28/M06 A2999 RMK A01 T02841061  RH  010%=      5-min Rain = 0
KVA1 290038Z 28010KT 28/M06 A2999 RMK A01 T02831063  RH  010%=      5-min Rain = 0
KVA1 290039Z 28009KT 28/M06 A2999 RMK A01 T02821064  RH  010%=      5-min Rain = 0
KVA1 290040Z 28010KT 28/M06 A2999 RMK A01 T02821062  RH  010%=      5-min Rain = 0
KVA1 290041Z 28007KT 28/M06 A2999 RMK A01 T02821062  RH  010%=      5-min Rain = 0
KVA1 290042Z 27007KT 28/M06 A2999 RMK A01 T02821061  RH  010%=      5-min Rain = 0
KVA1 290043Z 27008KT 28/M06 A2999 RMK A01 T02821062  RH  010%=      5-min Rain = 0
KVA1 290044Z 28008KT 28/M06 A2999 RMK A01 T02811062  RH  010%=      5-min Rain = 0
KVA1 290045Z 28006KT 28/M06 A2999 RMK A01 T02801062  RH  010%=      5-min Rain = 0
KVA1 290046Z 27004KT 28/M06 A2999 RMK A01 T02801061  RH  010%=      5-min Rain = 0
KVA1 290047Z 27006KT 28/M06 A2999 RMK A01 T02801061  RH  010%=      5-min Rain = 0
KVA1 290048Z 27005KT 28/M06 A2999 RMK A01 T02801062  RH  010%=      5-min Rain = 0
KVA1 290049Z 28009KT 28/M06 A2999 RMK A01 T02791063  RH  010%=      5-min Rain = 0
KVA1 290050Z 29009KT 28/M07 A2999 RMK A01 T02791065  RH  010%=      5-min Rain = 0
KVA1 290051Z 30008KT 28/M07 A2999 RMK A01 T02781065  RH  010%=      5-min Rain = 0
KVA1 290052Z 29008KT 28/M07 A2999 RMK A01 T02781065  RH  010%=      5-min Rain = 0
KVA1 290053Z 29007KT 28/M07 A2999 RMK A01 T02771065  RH  010%=      5-min Rain = 0
KVA1 290054Z 29006KT 28/M07 A2999 RMK A01 T02771067  RH  010%=      5-min Rain = 0
KVA1 290055Z 29007KT 28/M07 A2999 RMK A01 T02771067  RH  010%=      5-min Rain = 0
KVA1 290056Z 28007KT 28/M07 A2999 RMK A01 T02761068  RH  010%=      5-min Rain = 0
KVA1 290057Z 28007KT 28/M07 A2999 RMK A01 T02751067  RH  010%=      5-min Rain = 0
KVA1 290058Z 29007KT 28/M07 A2999 RMK A01 T02751067  RH  010%=      5-min Rain = 0
KVA1 290059Z 27006KT 28/M07 A2999 RMK A01 T02751066  RH  010%=      5-min Rain = 0
KVA1 290100Z 29008KT 27/M07 A2999 RMK A01 T02741067  RH  010%=      5-min Rain = 0
KVA1 290101Z 29009KT 27/M07 A2999 RMK A01 T02731071  RH  010%=      5-min Rain = 0
KVA1 290102Z 29006KT 27/M07 A2999 RMK A01 T02731071  RH  010%=      5-min Rain = 0
KVA1 290103Z 29006KT 27/M07 A2999 RMK A01 T02721071  RH  010%=      5-min Rain = 0
KVA1 290104Z 29005KT 27/M07 A2999 RMK A01 T02711071  RH  010%=      5-min Rain = 0
KVA1 290105Z 29005KT 27/M07 A2999 RMK A01 T02701070  RH  010%=      5-min Rain = 0
KVA1 290106Z 28004KT 27/M07 A2999 RMK A01 T02681070  RH  010%=      5-min Rain = 0
KVA1 290107Z 29005KT 27/M07 A2999 RMK A01 T02671070  RH  010%=      5-min Rain = 0
KVA1 290108Z 29005KT 27/M07 A2999 RMK A01 T02651069  RH  010%=      5-min Rain = 0
KVA1 290109Z 29005KT 26/M07 A2999 RMK A01 T02641069  RH  011%=      5-min Rain = 0
KVA1 290110Z 29005KT 26/M07 A2999 RMK A01 T02631068  RH  011%=      5-min Rain = 0
KVA1 290111Z 29005KT 26/M07 A2999 RMK A01 T02621068  RH  011%=      5-min Rain = 0
KVA1 290112Z 29005KT 26/M07 A2999 RMK A01 T02611068  RH  011%=      5-min Rain = 0
KVA1 290113Z 29005KT 26/M07 A2999 RMK A01 T02601067  RH  011%=      5-min Rain = 0
KVA1 290114Z 29004KT 26/M07 A2999 RMK A01 T02581067  RH  011%=      5-min Rain = 0
KVA1 290115Z 29004KT 26/M07 A2999 RMK A01 T02571066  RH  011%=      5-min Rain = 0
KVA1 290116Z 29004KT 26/M07 A30 RMK A01 T02551067  RH  011%=      5-min Rain = 0
KVA1 290117Z 29003KT 25/M07 A30 RMK A01 T02541066  RH  012%=      5-min Rain = 0
KVA1 290118Z 29003KT 25/M07 A30 RMK A01 T02531066  RH  012%=      5-min Rain = 0
KVA1 290119Z 29003KT 25/M07 A30 RMK A01 T02511065  RH  012%=      5-min Rain = 0
KVA1 290120Z 28003KT 25/M07 A30 RMK A01 T02501066  RH  012%=      5-min Rain = 0
KVA1 290121Z 29003KT 25/M07 A30 RMK A01 T02491066  RH  012%=      5-min Rain = 0
KVA1 290122Z 28003KT 25/M07 A30 RMK A01 T02491066  RH  012%=      5-min Rain = 0
KVA1 290123Z 29003KT 25/M07 A30 RMK A01 T02481066  RH  012%=      5-min Rain = 0
KVA1 290124Z 28003KT 25/M07 A30 RMK A01 T02471066  RH  012%=      5-min Rain = 0
KVA1 290125Z 28003KT 25/M07 A30 RMK A01 T02461066  RH  012%=      5-min Rain = 0
KVA1 290126Z 28003KT 25/M07 A30 RMK A01 T02451065  RH  012%=      5-min Rain = 0
KVA1 290127Z 28003KT 24/M06 A30 RMK A01 T02431064  RH  012%=      5-min Rain = 0
KVA1 290128Z 28003KT 24/M07 A30 RMK A01 T02401065  RH  013%=      5-min Rain = 0
KVA1 290129Z 29003KT 24/M07 A30 RMK A01 T02381065  RH  013%=      5-min Rain = 0
KVA1 290130Z 30003KT 24/M06 A30 RMK A01 T02371061  RH  013%=      5-min Rain = 0
KVA1 290131Z 30003KT 23/M06 A30 RMK A01 T02341062  RH  013%=      5-min Rain = 0
KVA1 290132Z 29003KT 23/M07 A30 RMK A01 T02331065  RH  013%=      5-min Rain = 0
KVA1 290133Z 29003KT 23/M06 A30 RMK A01 T02331064  RH  013%=      5-min Rain = 0
KVA1 290134Z 29003KT 24/M06 A30 RMK A01 T02351064  RH  013%=      5-min Rain = 0
KVA1 290135Z 29003KT 24/M06 A30 RMK A01 T02371064  RH  013%=      5-min Rain = 0
KVA1 290136Z 29003KT 24/M06 A30 RMK A01 T02381064  RH  013%=      5-min Rain = 0
KVA1 290137Z 29002KT 24/M06 A30 RMK A01 T02381064  RH  013%=      5-min Rain = 0
KVA1 290138Z 30002KT 24/M06 A30 RMK A01 T02381063  RH  013%=      5-min Rain = 0
KVA1 290139Z 29002KT 24/M06 A30 RMK A01 T02351060  RH  013%=      5-min Rain = 0
KVA1 290140Z 29002KT 23/M06 A30 RMK A01 T02311059  RH  014%=      5-min Rain = 0
KVA1 290141Z 29002KT 23/M06 A30 RMK A01 T02281063  RH  014%=      5-min Rain = 0
KVA1 290142Z 29002KT 23/M06 A30 RMK A01 T02281064  RH  014%=      5-min Rain = 0
KVA1 290143Z 29002KT 23/M07 A30 RMK A01 T02281065  RH  014%=      5-min Rain = 0
KVA1 290144Z 29002KT 23/M06 A30 RMK A01 T02291060  RH  014%=      5-min Rain = 0
KVA1 290145Z 30001KT 23/M06 A30 RMK A01 T02271063  RH  014%=      5-min Rain = 0
KVA1 290146Z 28002KT 23/M06 A30 RMK A01 T02271063  RH  014%=      5-min Rain = 0
KVA1 290147Z 28002KT 23/M06 A30 RMK A01 T02251061  RH  014%=      5-min Rain = 0
KVA1 290148Z 29002KT 22/M06 A30 RMK A01 T02221060  RH  015%=      5-min Rain = 0
KVA1 290149Z 29002KT 22/M06 A30 RMK A01 T02191063  RH  015%=      5-min Rain = 0
KVA1 290150Z 30002KT 23/M06 A30 RMK A01 T02251063  RH  014%=      5-min Rain = 0
KVA1 290151Z 30001KT 23/M06 A30 RMK A01 T02301063  RH  014%=      5-min Rain = 0
KVA1 290152Z 30002KT 23/M06 A30 RMK A01 T02321060  RH  014%=      5-min Rain = 0
KVA1 290153Z 30002KT 23/M06 A30 RMK A01 T02321060  RH  014%=      5-min Rain = 0
KVA1 290154Z 30002KT 23/M06 A30 RMK A01 T02291059  RH  014%=      5-min Rain = 0
KVA1 290155Z 30002KT 22/M06 A30 RMK A01 T02231059  RH  015%=      5-min Rain = 0
KVA1 290156Z 30001KT 22/M06 A30 RMK A01 T02181060  RH  015%=      5-min Rain = 0
KVA1 290157Z 30002KT 22/M06 A30 RMK A01 T02171061  RH  015%=      5-min Rain = 0
KVA1 290158Z 30002KT 22/M06 A30 RMK A01 T02181059  RH  015%=      5-min Rain = 0
KVA1 290159Z 30002KT 22/M06 A30 RMK A01 T02171057  RH  015%=      5-min Rain = 0
KVA1 290200Z 30002KT 21/M06 A30 RMK A01 T02141058  RH  016%=      5-min Rain = 0
KVA1 290201Z 30002KT 21/M06 A30 RMK A01 T02141057  RH  016%=      5-min Rain = 0
KVA1 290202Z 30002KT 21/M06 A30 RMK A01 T02131057  RH  016%=      5-min Rain = 0
KVA1 290203Z 29003KT 21/M06 A30 RMK A01 T02111058  RH  016%=      5-min Rain = 0
KVA1 290204Z 29003KT 21/M06 A30 RMK A01 T02081056  RH  016%=      5-min Rain = 0
KVA1 290205Z 28004KT 21/M06 A30 RMK A01 T02051057  RH  017%=      5-min Rain = 0
KVA1 290206Z 28004KT 20/M06 A30 RMK A01 T02031058  RH  017%=      5-min Rain = 0
KVA1 290207Z 28003KT 20/M06 A3001 RMK A01 T02031057  RH  017%=      5-min Rain = 0
KVA1 290208Z 28003KT 20/M06 A3001 RMK A01 T02021058  RH  017%=      5-min Rain = 0
KVA1 290209Z 28003KT 20/M06 A3001 RMK A01 T02011057  RH  017%=      5-min Rain = 0
KVA1 290210Z 28003KT 20/M06 A3001 RMK A01 T02011057  RH  017%=      5-min Rain = 0
KVA1 290211Z 28003KT 20/M06 A3001 RMK A01 T02001057  RH  017%=      5-min Rain = 0
KVA1 290212Z 27003KT 20/M06 A3001 RMK A01 T02001057  RH  017%=      5-min Rain = 0
KVA1 290213Z 28004KT 20/M06 A3001 RMK A01 T01991057  RH  017%=      5-min Rain = 0
KVA1 290214Z 28004KT 20/M06 A3001 RMK A01 T01991056  RH  017%=      5-min Rain = 0
KVA1 290215Z 28004KT 20/M06 A3001 RMK A01 T01981057  RH  017%=      5-min Rain = 0
KVA1 290216Z 27004KT 20/M06 A3001 RMK A01 T01981057  RH  017%=      5-min Rain = 0
KVA1 290217Z 28004KT 20/M06 A3001 RMK A01 T01971056  RH  018%=      5-min Rain = 0
KVA1 290218Z 28005KT 20/M06 A3001 RMK A01 T01971055  RH  018%=      5-min Rain = 0
KVA1 290219Z 28006KT 20/M06 A3001 RMK A01 T01971055  RH  018%=      5-min Rain = 0
KVA1 290220Z 28006KT 20/M05 A3001 RMK A01 T01971054  RH  018%=      5-min Rain = 0
KVA1 290221Z 28006KT 20/M05 A3001 RMK A01 T01961053  RH  018%=      5-min Rain = 0
KVA1 290222Z 28006KT 20/M05 A3001 RMK A01 T01961053  RH  018%=      5-min Rain = 0
KVA1 290223Z 28006KT 20/M05 A3001 RMK A01 T01961052  RH  018%=      5-min Rain = 0
KVA1 290224Z 28006KT 20/M05 A3001 RMK A01 T01961052  RH  018%=      5-min Rain = 0
KVA1 290225Z 28006KT 20/M05 A3001 RMK A01 T01961051  RH  018%=      5-min Rain = 0
KVA1 290226Z 28007KT 20/M05 A3001 RMK A01 T01961050  RH  018%=      5-min Rain = 0
KVA1 290227Z 28007KT 20/M05 A3001 RMK A01 T01961049  RH  019%=      5-min Rain = 0
KVA1 290228Z 29007KT 20/M05 A3001 RMK A01 T01951048  RH  019%=      5-min Rain = 0
KVA1 290229Z 28007KT 20/M05 A3001 RMK A01 T01951046  RH  019%=      5-min Rain = 0
KVA1 290230Z 28008KT 19/M05 A3001 RMK A01 T01941045  RH  019%=      5-min Rain = 0
KVA1 290231Z 28007KT 19/M04 A3001 RMK A01 T01931043  RH  020%=      5-min Rain = 0
KVA1 290232Z 28007KT 19/M04 A3001 RMK A01 T01931041  RH  020%=      5-min Rain = 0
KVA1 290233Z 28008KT 19/M04 A3001 RMK A01 T01931040  RH  020%=      5-min Rain = 0
KVA1 290234Z 28008KT 19/M04 A3001 RMK A01 T01931039  RH  020%=      5-min Rain = 0
KVA1 290235Z 28008KT 19/M04 A3001 RMK A01 T01941038  RH  021%=      5-min Rain = 0
KVA1 290236Z 27008KT 20/M04 A3001 RMK A01 T01951037  RH  021%=      5-min Rain = 0
KVA1 290237Z 27008KT 20/M04 A3002 RMK A01 T01961037  RH  020%=      5-min Rain = 0
KVA1 290238Z 28008KT 20/M04 A3002 RMK A01 T01971037  RH  020%=      5-min Rain = 0
KVA1 290239Z 27008KT 20/M04 A3002 RMK A01 T01991037  RH  020%=      5-min Rain = 0
KVA1 290240Z 27007KT 20/M04 A3002 RMK A01 T02011037  RH  020%=      5-min Rain = 0
KVA1 290241Z 27007KT 20/M04 A3002 RMK A01 T02031037  RH  020%=      5-min Rain = 0
KVA1 290242Z 27008KT 20/M04 A3002 RMK A01 T02041038  RH  019%=      5-min Rain = 0
KVA1 290243Z 27008KT 21/M04 A3002 RMK A01 T02061038  RH  019%=      5-min Rain = 0
KVA1 290244Z 27007KT 21/M04 A3002 RMK A01 T02071037  RH  019%=      5-min Rain = 0
KVA1 290245Z 27007KT 21/M04 A3002 RMK A01 T02081037  RH  019%=      5-min Rain = 0
KVA1 290246Z 27007KT 21/M04 A3002 RMK A01 T02101036  RH  019%=      5-min Rain = 0
KVA1 290247Z 27006KT 21/M04 A3002 RMK A01 T02111036  RH  019%=      5-min Rain = 0
KVA1 290248Z 27006KT 21/M04 A3002 RMK A01 T02111036  RH  019%=      5-min Rain = 0
KVA1 290249Z 27006KT 21/M04 A3002 RMK A01 T02111035  RH  019%=      5-min Rain = 0
KVA1 290250Z 27006KT 21/M03 A3002 RMK A01 T02101033  RH  019%=      5-min Rain = 0
KVA1 290251Z 27006KT 21/M03 A3002 RMK A01 T02091032  RH  020%=      5-min Rain = 0
KVA1 290252Z 27007KT 21/M03 A3002 RMK A01 T02071031  RH  020%=      5-min Rain = 0
KVA1 290253Z 27007KT 21/M03 A3002 RMK A01 T02051031  RH  020%=      5-min Rain = 0
KVA1 290254Z 27007KT 20/M03 A3002 RMK A01 T02031030  RH  021%=      5-min Rain = 0
KVA1 290255Z 28007KT 20/M03 A3002 RMK A01 T02021028  RH  021%=      5-min Rain = 0
KVA1 290256Z 27006KT 20/M03 A3002 RMK A01 T02001028  RH  021%=      5-min Rain = 0
KVA1 290257Z 28007KT 20/M03 A3002 RMK A01 T01981028  RH  022%=      5-min Rain = 0
KVA1 290258Z 28007KT 20/M03 A3002 RMK A01 T01971027  RH  022%=      5-min Rain = 0
KVA1 290259Z 28007KT 20/M03 A3002 RMK A01 T01961027  RH  022%=      5-min Rain = 0
KVA1 290300Z 28007KT 20/M03 A3002 RMK A01 T01951026  RH  022%=      5-min Rain = 0
KVA1 290301Z 28006KT 19/M03 A3002 RMK A01 T01941026  RH  023%=      5-min Rain = 0
KVA1 290302Z 28005KT 19/M03 A3002 RMK A01 T01931026  RH  023%=      5-min Rain = 0
KVA1 290303Z 28005KT 19/M03 A3002 RMK A01 T01921025  RH  023%=      5-min Rain = 0
KVA1 290304Z 28005KT 19/M03 A3002 RMK A01 T01911025  RH  023%=      5-min Rain = 0
KVA1 290305Z 28005KT 19/M03 A3003 RMK A01 T01891025  RH  023%=      5-min Rain = 0
KVA1 290306Z 28005KT 19/M03 A3003 RMK A01 T01881025  RH  023%=      5-min Rain = 0
KVA1 290307Z 27005KT 19/M03 A3003 RMK A01 T01871025  RH  024%=      5-min Rain = 0
KVA1 290308Z 27005KT 19/M03 A3003 RMK A01 T01851026  RH  024%=      5-min Rain = 0
KVA1 290309Z 27005KT 18/M03 A3003 RMK A01 T01841025  RH  024%=      5-min Rain = 0
KVA1 290310Z 27005KT 18/M03 A3003 RMK A01 T01831026  RH  024%=      5-min Rain = 0
KVA1 290311Z 27006KT 18/M03 A3003 RMK A01 T01821027  RH  024%=      5-min Rain = 0
KVA1 290312Z 27006KT 18/M03 A3003 RMK A01 T01811027  RH  024%=      5-min Rain = 0
KVA1 290313Z 27006KT 18/M03 A3003 RMK A01 T01791028  RH  024%=      5-min Rain = 0
KVA1 290314Z 28007KT 18/M03 A3003 RMK A01 T01791028  RH  024%=      5-min Rain = 0
KVA1 290315Z 28006KT 18/M03 A3003 RMK A01 T01791029  RH  024%=      5-min Rain = 0
KVA1 290316Z 28006KT 18/M03 A3003 RMK A01 T01791029  RH  024%=      5-min Rain = 0
KVA1 290317Z 28007KT 18/M03 A3003 RMK A01 T01781030  RH  024%=      5-min Rain = 0
KVA1 290318Z 28006KT 18/M03 A3003 RMK A01 T01781031  RH  024%=      5-min Rain = 0
KVA1 290319Z 28006KT 18/M03 A3003 RMK A01 T01781030  RH  024%=      5-min Rain = 0
KVA1 290320Z 28006KT 18/M03 A3003 RMK A01 T01781031  RH  024%=      5-min Rain = 0
KVA1 290321Z 28006KT 18/M03 A3003 RMK A01 T01781031  RH  024%=      5-min Rain = 0
KVA1 290322Z 28006KT 18/M03 A3003 RMK A01 T01781031  RH  024%=      5-min Rain = 0
KVA1 290323Z 28006KT 18/M03 A3003 RMK A01 T01781031  RH  024%=      5-min Rain = 0
KVA1 290324Z 27006KT 18/M03 A3003 RMK A01 T01781031  RH  024%=      5-min Rain = 0
KVA1 290325Z 28006KT 18/M03 A3003 RMK A01 T01801031  RH  024%=      5-min Rain = 0
KVA1 290326Z 27006KT 18/M03 A3003 RMK A01 T01801031  RH  023%=      5-min Rain = 0
KVA1 290327Z 27006KT 18/M03 A3003 RMK A01 T01811031  RH  023%=      5-min Rain = 0
KVA1 290328Z 27006KT 18/M03 A3003 RMK A01 T01811032  RH  023%=      5-min Rain = 0
KVA1 290329Z 28005KT 18/M03 A3003 RMK A01 T01821032  RH  023%=      5-min Rain = 0
KVA1 290330Z 28005KT 18/M03 A3003 RMK A01 T01821032  RH  023%=      5-min Rain = 0
KVA1 290331Z 27005KT 18/M03 A3003 RMK A01 T01831032  RH  023%=      5-min Rain = 0
KVA1 290332Z 27005KT 18/M03 A3003 RMK A01 T01841032  RH  023%=      5-min Rain = 0
KVA1 290333Z 28005KT 18/M03 A3003 RMK A01 T01831032  RH  023%=      5-min Rain = 0
KVA1 290334Z 28005KT 18/M03 A3003 RMK A01 T01841031  RH  023%=      5-min Rain = 0
KVA1 290335Z 28005KT 18/M03 A3003 RMK A01 T01831032  RH  023%=      5-min Rain = 0
KVA1 290336Z 28006KT 18/M03 A3003 RMK A01 T01831032  RH  023%=      5-min Rain = 0
KVA1 290337Z 28006KT 18/M03 A3003 RMK A01 T01831031  RH  023%=      5-min Rain = 0
KVA1 290338Z 28006KT 18/M03 A3003 RMK A01 T01821032  RH  023%=      5-min Rain = 0
KVA1 290339Z 28005KT 18/M03 A3003 RMK A01 T01821033  RH  023%=      5-min Rain = 0
KVA1 290340Z 28005KT 18/M03 A3003 RMK A01 T01821033  RH  023%=      5-min Rain = 0
KVA1 290341Z 28006KT 18/M03 A3003 RMK A01 T01831033  RH  023%=      5-min Rain = 0
KVA1 290342Z 28006KT 18/M03 A3003 RMK A01 T01841033  RH  023%=      5-min Rain = 0
KVA1 290343Z 28006KT 19/M03 A3003 RMK A01 T01851033  RH  023%=      5-min Rain = 0
KVA1 290344Z 28006KT 19/M03 A3003 RMK A01 T01851033  RH  022%=      5-min Rain = 0
KVA1 290345Z 28006KT 19/M03 A3003 RMK A01 T01861033  RH  022%=      5-min Rain = 0
KVA1 290346Z 29005KT 19/M03 A3003 RMK A01 T01871033  RH  022%=      5-min Rain = 0
KVA1 290347Z 29005KT 19/M03 A3003 RMK A01 T01871033  RH  022%=      5-min Rain = 0
KVA1 290348Z 28006KT 19/M03 A3003 RMK A01 T01871033  RH  022%=      5-min Rain = 0
KVA1 290349Z 29006KT 19/M03 A3003 RMK A01 T01881033  RH  022%=      5-min Rain = 0
KVA1 290350Z 29005KT 19/M03 A3003 RMK A01 T01881033  RH  022%=      5-min Rain = 0
KVA1 290351Z 29005KT 19/M03 A3003 RMK A01 T01891033  RH  022%=      5-min Rain = 0
KVA1 290352Z 29005KT 19/M03 A3003 RMK A01 T01891033  RH  022%=      5-min Rain = 0
KVA1 290353Z 28006KT 19/M03 A3003 RMK A01 T01891033  RH  022%=      5-min Rain = 0
KVA1 290354Z 29005KT 19/M03 A3003 RMK A01 T01891033  RH  022%=      5-min Rain = 0
KVA1 290355Z 28005KT 19/M03 A3003 RMK A01 T01901033  RH  022%=      5-min Rain = 0
KVA1 290356Z 28004KT 19/M03 A3003 RMK A01 T01901033  RH  022%=      5-min Rain = 0
KVA1 290357Z 27004KT 19/M03 A3003 RMK A01 T01901033  RH  022%=      5-min Rain = 0
KVA1 290358Z 26004KT 19/M03 A3003 RMK A01 T01901033  RH  022%=      5-min Rain = 0
KVA1 290359Z 24002KT 19/M03 A3003 RMK A01 T01901033  RH  022%=      5-min Rain = 0
KVA1 290400Z 18003KT 19/M03 A3003 RMK A01 T01871032  RH  022%=      5-min Rain = 0
KVA1 290401Z 18004KT 18/M03 A3003 RMK A01 T01821032  RH  023%=      5-min Rain = 0
KVA1 290402Z 18005KT 18/M03 A3003 RMK A01 T01771032  RH  024%=      5-min Rain = 0
KVA1 290403Z 18005KT 17/M03 A3003 RMK A01 T01741032  RH  024%=      5-min Rain = 0
KVA1 290404Z 17005KT 17/M03 A3003 RMK A01 T01711033  RH  025%=      5-min Rain = 0
KVA1 290405Z 17004KT 17/M03 A3003 RMK A01 T01691033  RH  025%=      5-min Rain = 0
KVA1 290406Z 17004KT 17/M03 A3003 RMK A01 T01671033  RH  025%=      5-min Rain = 0
KVA1 290407Z 16004KT 17/M03 A3003 RMK A01 T01661033  RH  025%=      5-min Rain = 0
KVA1 290408Z 19004KT 17/M03 A3003 RMK A01 T01661033  RH  025%=      5-min Rain = 0
KVA1 290409Z 18004KT 17/M03 A3003 RMK A01 T01651034  RH  025%=      5-min Rain = 0
KVA1 290410Z 19005KT 17/M04 A3003 RMK A01 T01661036  RH  025%=      5-min Rain = 0
KVA1 290411Z 20005KT 17/M04 A3003 RMK A01 T01701038  RH  024%=      5-min Rain = 0
KVA1 290412Z 21005KT 18/M04 A3003 RMK A01 T01771042  RH  022%=      5-min Rain = 0
KVA1 290413Z 20004KT 19/M04 A3003 RMK A01 T01871043  RH  021%=      5-min Rain = 0
KVA1 290414Z 19004KT 19/M04 A3003 RMK A01 T01921040  RH  020%=      5-min Rain = 0
KVA1 290415Z 21004KT 19/M04 A3003 RMK A01 T01931042  RH  020%=      5-min Rain = 0
KVA1 290416Z 20004KT 19/M04 A3003 RMK A01 T01941041  RH  020%=      5-min Rain = 0
KVA1 290417Z 23003KT 19/M04 A3003 RMK A01 T01931041  RH  020%=      5-min Rain = 0
KVA1 290418Z 20003KT 19/M04 A3003 RMK A01 T01921044  RH  020%=      5-min Rain = 0
KVA1 290419Z 19003KT 19/M04 A3003 RMK A01 T01931043  RH  020%=      5-min Rain = 0
KVA1 290420Z 17004KT 19/M04 A3003 RMK A01 T01931041  RH  020%=      5-min Rain = 0
KVA1 290421Z 17004KT 19/M04 A3003 RMK A01 T01921041  RH  020%=      5-min Rain = 0
KVA1 290422Z 19002KT 19/M04 A3003 RMK A01 T01901042  RH  020%=      5-min Rain = 0
KVA1 290423Z 18002KT 19/M04 A3002 RMK A01 T01891041  RH  021%=      5-min Rain = 0
KVA1 290424Z 18002KT 19/M04 A3002 RMK A01 T01881041  RH  021%=      5-min Rain = 0
KVA1 290425Z 21002KT 19/M04 A3003 RMK A01 T01861041  RH  021%=      5-min Rain = 0
KVA1 290426Z 20003KT 19/M04 A3002 RMK A01 T01851040  RH  021%=      5-min Rain = 0
KVA1 290427Z 19004KT 18/M04 A3002 RMK A01 T01831041  RH  022%=      5-min Rain = 0
KVA1 290428Z 18004KT 18/M04 A3002 RMK A01 T01811041  RH  022%=      5-min Rain = 0
KVA1 290429Z 19004KT 18/M04 A3002 RMK A01 T01791041  RH  022%=      5-min Rain = 0
KVA1 290430Z 21003KT 18/M04 A3002 RMK A01 T01771041  RH  022%=      5-min Rain = 0
KVA1 290431Z 18005KT 18/M04 A3002 RMK A01 T01761042  RH  022%=      5-min Rain = 0
KVA1 290432Z 18005KT 18/M04 A3002 RMK A01 T01751041  RH  022%=      5-min Rain = 0
KVA1 290433Z 19004KT 18/M04 A3002 RMK A01 T01751041  RH  023%=      5-min Rain = 0
KVA1 290434Z 19004KT 17/M04 A3002 RMK A01 T01741041  RH  023%=      5-min Rain = 0
KVA1 290435Z 20004KT 17/M04 A3002 RMK A01 T01731042  RH  023%=      5-min Rain = 0
KVA1 290436Z 19006KT 17/M04 A3002 RMK A01 T01721042  RH  023%=      5-min Rain = 0
KVA1 290437Z 19006KT 17/M04 A3002 RMK A01 T01721043  RH  023%=      5-min Rain = 0
KVA1 290438Z 19006KT 17/M04 A3002 RMK A01 T01721043  RH  023%=      5-min Rain = 0
KVA1 290439Z 20006KT 17/M04 A3002 RMK A01 T01721043  RH  023%=      5-min Rain = 0
KVA1 290440Z 22004KT 17/M04 A3003 RMK A01 T01711043  RH  023%=      5-min Rain = 0
KVA1 290441Z 21005KT 17/M04 A3002 RMK A01 T01691044  RH  023%=      5-min Rain = 0
KVA1 290442Z 21005KT 17/M04 A3002 RMK A01 T01671044  RH  023%=      5-min Rain = 0
KVA1 290443Z 21005KT 17/M04 A3002 RMK A01 T01661044  RH  023%=      5-min Rain = 0
KVA1 290444Z 21007KT 17/M04 A3002 RMK A01 T01661043  RH  024%=      5-min Rain = 0
KVA1 290445Z 21006KT 17/M04 A3002 RMK A01 T01661044  RH  023%=      5-min Rain = 0
KVA1 290446Z 21006KT 17/M05 A3002 RMK A01 T01671045  RH  023%=      5-min Rain = 0
KVA1 290447Z 22006KT 17/M05 A3002 RMK A01 T01681045  RH  023%=      5-min Rain = 0
KVA1 290448Z 22006KT 17/M05 A3002 RMK A01 T01671045  RH  023%=      5-min Rain = 0
KVA1 290449Z 22006KT 17/M05 A3002 RMK A01 T01671046  RH  023%=      5-min Rain = 0
KVA1 290450Z 22006KT 17/M05 A3002 RMK A01 T01671046  RH  023%=      5-min Rain = 0
KVA1 290451Z 22006KT 17/M05 A3002 RMK A01 T01671047  RH  023%=      5-min Rain = 0
KVA1 290452Z 22005KT 17/M05 A3002 RMK A01 T01681048  RH  022%=      5-min Rain = 0
KVA1 290453Z 21005KT 17/M05 A3002 RMK A01 T01691048  RH  022%=      5-min Rain = 0
KVA1 290454Z 22005KT 17/M05 A3002 RMK A01 T01691048  RH  022%=      5-min Rain = 0
KVA1 290455Z 22005KT 17/M05 A3002 RMK A01 T01691049  RH  022%=      5-min Rain = 0
KVA1 290456Z 21005KT 17/M05 A3002 RMK A01 T01691049  RH  022%=      5-min Rain = 0
KVA1 290457Z 22005KT 17/M05 A3002 RMK A01 T01691049  RH  022%=      5-min Rain = 0
KVA1 290458Z 21005KT 17/M05 A3002 RMK A01 T01681050  RH  022%=      5-min Rain = 0
KVA1 290459Z 21006KT 17/M05 A3002 RMK A01 T01681050  RH  022%=      5-min Rain = 0

Page generated in 0.0933 seconds.